Observation data for Amarillo 15 North Northwest on 03/13/2018      Previous  Date       Current Mesonet Observations  Soil Data  Daily Summary Page  Observations in Plain Language
KAM3 130501Z 15014KT 07/M06 A3019 RMK A01 T00691056  RH  040%=      5-min Rain = 0
KAM3 130502Z 15014KT 07/M06 A3019 RMK A01 T00701056  RH  040%=      5-min Rain = 0
KAM3 130503Z 15014KT 07/M06 A3019 RMK A01 T00691056  RH  040%=      5-min Rain = 0
KAM3 130504Z 15015KT 07/M06 A3019 RMK A01 T00701056  RH  040%=      5-min Rain = 0
KAM3 130505Z 15013KT 07/M06 A3019 RMK A01 T00701057  RH  040%=      5-min Rain = 0
KAM3 130506Z 15014KT 07/M06 A3019 RMK A01 T00701056  RH  040%=      5-min Rain = 0
KAM3 130507Z 15014KT 07/M06 A3019 RMK A01 T00701057  RH  040%=      5-min Rain = 0
KAM3 130508Z 16013G18KT 07/M06 A3019 RMK A01 T00701056  RH  040%=      5-min Rain = 0
KAM3 130509Z 16013KT 07/M06 A3019 RMK A01 T00701056  RH  040%=      5-min Rain = 0
KAM3 130510Z 16014KT 07/M06 A3019 RMK A01 T00701056  RH  040%=      5-min Rain = 0
KAM3 130511Z 16014KT 07/M06 A3019 RMK A01 T00701056  RH  040%=      5-min Rain = 0
KAM3 130512Z 16014KT 07/M06 A3019 RMK A01 T00701056  RH  040%=      5-min Rain = 0
KAM3 130513Z 16012KT 07/M06 A3019 RMK A01 T00701056  RH  040%=      5-min Rain = 0
KAM3 130514Z 16013KT 07/M06 A3019 RMK A01 T00701057  RH  040%=      5-min Rain = 0
KAM3 130515Z 16013KT 07/M06 A3019 RMK A01 T00691057  RH  040%=      5-min Rain = 0
KAM3 130516Z 16012KT 07/M06 A3019 RMK A01 T00681057  RH  040%=      5-min Rain = 0
KAM3 130517Z 16013KT 07/M06 A3019 RMK A01 T00681057  RH  040%=      5-min Rain = 0
KAM3 130518Z 16011KT 07/M06 A3019 RMK A01 T00681057  RH  040%=      5-min Rain = 0
KAM3 130519Z 16012KT 07/M06 A3019 RMK A01 T00681058  RH  040%=      5-min Rain = 0
KAM3 130520Z 16014KT 07/M06 A3019 RMK A01 T00671058  RH  041%=      5-min Rain = 0
KAM3 130521Z 16014KT 07/M06 A3019 RMK A01 T00671057  RH  041%=      5-min Rain = 0
KAM3 130522Z 16012KT 07/M06 A3019 RMK A01 T00681057  RH  041%=      5-min Rain = 0
KAM3 130523Z 16012KT 07/M06 A3019 RMK A01 T00681057  RH  040%=      5-min Rain = 0
KAM3 130524Z 16012KT 07/M06 A3019 RMK A01 T00681057  RH  040%=      5-min Rain = 0
KAM3 130525Z 16014KT 07/M06 A3019 RMK A01 T00681057  RH  040%=      5-min Rain = 0
KAM3 130526Z 16013KT 07/M06 A3019 RMK A01 T00681057  RH  040%=      5-min Rain = 0
KAM3 130527Z 16013KT 07/M06 A3019 RMK A01 T00681057  RH  040%=      5-min Rain = 0
KAM3 130528Z 16013KT 07/M06 A3019 RMK A01 T00691058  RH  040%=      5-min Rain = 0
KAM3 130529Z 16015KT 07/M06 A3019 RMK A01 T00691058  RH  040%=      5-min Rain = 0
KAM3 130530Z 16014KT 07/M06 A3019 RMK A01 T00691057  RH  040%=      5-min Rain = 0
KAM3 130531Z 16013KT 07/M06 A3019 RMK A01 T00701057  RH  040%=      5-min Rain = 0
KAM3 130532Z 16014KT 07/M06 A3019 RMK A01 T00691057  RH  040%=      5-min Rain = 0
KAM3 130533Z 16012KT 07/M06 A3019 RMK A01 T00691057  RH  040%=      5-min Rain = 0
KAM3 130534Z 16012KT 07/M06 A3019 RMK A01 T00681058  RH  040%=      5-min Rain = 0
KAM3 130535Z 16012G17KT 07/M06 A3019 RMK A01 T00681058  RH  040%=      5-min Rain = 0
KAM3 130536Z 16013KT 07/M06 A3019 RMK A01 T00681058  RH  040%=      5-min Rain = 0
KAM3 130537Z 16013KT 07/M06 A3019 RMK A01 T00681058  RH  040%=      5-min Rain = 0
KAM3 130538Z 16013KT 07/M06 A3019 RMK A01 T00681058  RH  040%=      5-min Rain = 0
KAM3 130539Z 16013KT 07/M06 A3019 RMK A01 T00681058  RH  040%=      5-min Rain = 0
KAM3 130540Z 16014KT 07/M06 A3019 RMK A01 T00691058  RH  040%=      5-min Rain = 0
KAM3 130541Z 16012KT 07/M06 A3019 RMK A01 T00691058  RH  040%=      5-min Rain = 0
KAM3 130542Z 16012KT 07/M06 A3019 RMK A01 T00681058  RH  040%=      5-min Rain = 0
KAM3 130543Z 16012KT 07/M06 A3019 RMK A01 T00671058  RH  040%=      5-min Rain = 0
KAM3 130544Z 16011KT 07/M06 A3019 RMK A01 T00671058  RH  040%=      5-min Rain = 0
KAM3 130545Z 15013KT 07/M06 A3019 RMK A01 T00661057  RH  041%=      5-min Rain = 0
KAM3 130546Z 16012KT 07/M06 A3019 RMK A01 T00671057  RH  041%=      5-min Rain = 0
KAM3 130547Z 16012KT 07/M06 A3019 RMK A01 T00671057  RH  041%=      5-min Rain = 0
KAM3 130548Z 16013KT 07/M06 A3019 RMK A01 T00661057  RH  041%=      5-min Rain = 0
KAM3 130549Z 16012KT 07/M06 A3019 RMK A01 T00661057  RH  041%=      5-min Rain = 0
KAM3 130550Z 15013KT 07/M06 A3019 RMK A01 T00661058  RH  041%=      5-min Rain = 0
KAM3 130551Z 15013KT 07/M06 A3019 RMK A01 T00671058  RH  041%=      5-min Rain = 0
KAM3 130552Z 15012KT 07/M06 A3019 RMK A01 T00671058  RH  041%=      5-min Rain = 0
KAM3 130553Z 15012KT 07/M06 A3019 RMK A01 T00671057  RH  041%=      5-min Rain = 0
KAM3 130554Z 15013KT 07/M06 A3019 RMK A01 T00661058  RH  041%=      5-min Rain = 0
KAM3 130555Z 16012KT 07/M06 A3019 RMK A01 T00661058  RH  041%=      5-min Rain = 0
KAM3 130556Z 16013KT 07/M06 A3019 RMK A01 T00661058  RH  041%=      5-min Rain = 0
KAM3 130557Z 15013KT 07/M06 A3019 RMK A01 T00671058  RH  041%=      5-min Rain = 0
KAM3 130558Z 15011KT 07/M06 A3019 RMK A01 T00661058  RH  041%=      5-min Rain = 0
KAM3 130559Z 15012KT 07/M06 A3019 RMK A01 T00661058  RH  041%=      5-min Rain = 0
KAM3 130600Z 16012KT 07/M06 A302 RMK A01 T00661058  RH  041%=      5-min Rain = 0
KAM3 130601Z 16010KT 07/M06 A302 RMK A01 T00661058  RH  041%=      5-min Rain = 0
KAM3 130602Z 15010KT 07/M06 A302 RMK A01 T00661058  RH  041%=      5-min Rain = 0
KAM3 130603Z 15010KT 07/M06 A302 RMK A01 T00651059  RH  041%=      5-min Rain = 0
KAM3 130604Z 15010KT 07/M06 A302 RMK A01 T00651059  RH  041%=      5-min Rain = 0
KAM3 130605Z 16010KT 06/M06 A302 RMK A01 T00641059  RH  041%=      5-min Rain = 0
KAM3 130606Z 15009KT 06/M06 A302 RMK A01 T00641059  RH  041%=      5-min Rain = 0
KAM3 130607Z 15009KT 06/M06 A302 RMK A01 T00641059  RH  041%=      5-min Rain = 0
KAM3 130608Z 15010KT 06/M06 A302 RMK A01 T00641059  RH  041%=      5-min Rain = 0
KAM3 130609Z 15011KT 06/M06 A302 RMK A01 T00641060  RH  041%=      5-min Rain = 0
KAM3 130610Z 15009KT 06/M06 A302 RMK A01 T00641060  RH  041%=      5-min Rain = 0
KAM3 130611Z 15010KT 06/M06 A302 RMK A01 T00641059  RH  041%=      5-min Rain = 0
KAM3 130612Z 14009KT 06/M06 A302 RMK A01 T00631060  RH  041%=      5-min Rain = 0
KAM3 130613Z 14008KT 06/M06 A302 RMK A01 T00631060  RH  041%=      5-min Rain = 0
KAM3 130614Z 14008KT 06/M06 A3021 RMK A01 T00631061  RH  041%=      5-min Rain = 0
KAM3 130615Z 14008KT 06/M06 A3021 RMK A01 T00631061  RH  041%=      5-min Rain = 0
KAM3 130616Z 14008KT 06/M06 A3021 RMK A01 T00621060  RH  041%=      5-min Rain = 0
KAM3 130617Z 14008KT 06/M06 A3021 RMK A01 T00611061  RH  041%=      5-min Rain = 0
KAM3 130618Z 13008KT 06/M06 A3021 RMK A01 T00591061  RH  042%=      5-min Rain = 0
KAM3 130619Z 13007KT 06/M06 A3021 RMK A01 T00591061  RH  042%=      5-min Rain = 0
KAM3 130620Z 14008KT 06/M06 A3021 RMK A01 T00581061  RH  042%=      5-min Rain = 0
KAM3 130621Z 14008KT 06/M06 A3021 RMK A01 T00581061  RH  042%=      5-min Rain = 0
KAM3 130622Z 14009KT 06/M06 A3021 RMK A01 T00581061  RH  042%=      5-min Rain = 0
KAM3 130623Z 14008KT 06/M06 A3021 RMK A01 T00591060  RH  042%=      5-min Rain = 0
KAM3 130624Z 14007KT 06/M06 A3021 RMK A01 T00601060  RH  042%=      5-min Rain = 0
KAM3 130625Z 14007KT 06/M06 A3021 RMK A01 T00591061  RH  042%=      5-min Rain = 0
KAM3 130626Z 14007KT 06/M06 A3021 RMK A01 T00581061  RH  042%=      5-min Rain = 0
KAM3 130627Z 14008KT 06/M06 A3021 RMK A01 T00571061  RH  042%=      5-min Rain = 0
KAM3 130628Z 15007KT 06/M06 A3021 RMK A01 T00571061  RH  042%=      5-min Rain = 0
KAM3 130629Z 15007KT 06/M06 A3021 RMK A01 T00561062  RH  042%=      5-min Rain = 0
KAM3 130630Z 15008KT 06/M06 A3021 RMK A01 T00561062  RH  042%=      5-min Rain = 0
KAM3 130631Z 14008KT 06/M06 A3021 RMK A01 T00561061  RH  042%=      5-min Rain = 0
KAM3 130632Z 15007KT 06/M06 A3021 RMK A01 T00561061  RH  042%=      5-min Rain = 0
KAM3 130633Z 15007KT 06/M06 A3021 RMK A01 T00571062  RH  042%=      5-min Rain = 0
KAM3 130634Z 15007KT 06/M06 A3021 RMK A01 T00561062  RH  042%=      5-min Rain = 0
KAM3 130635Z 15007KT 06/M06 A3021 RMK A01 T00551062  RH  043%=      5-min Rain = 0
KAM3 130636Z 15006KT 05/M06 A3021 RMK A01 T00541062  RH  043%=      5-min Rain = 0
KAM3 130637Z 15006KT 05/M06 A3021 RMK A01 T00541063  RH  043%=      5-min Rain = 0
KAM3 130638Z 14005KT 05/M06 A3021 RMK A01 T00531062  RH  043%=      5-min Rain = 0
KAM3 130639Z 15005KT 05/M06 A3021 RMK A01 T00531062  RH  043%=      5-min Rain = 0
KAM3 130640Z 14005KT 05/M06 A3021 RMK A01 T00521063  RH  043%=      5-min Rain = 0
KAM3 130641Z 14005KT 05/M06 A3021 RMK A01 T00521063  RH  043%=      5-min Rain = 0
KAM3 130642Z 14004KT 05/M06 A3021 RMK A01 T00511063  RH  043%=      5-min Rain = 0
KAM3 130643Z 13005KT 05/M06 A3021 RMK A01 T00511063  RH  043%=      5-min Rain = 0
KAM3 130644Z 13005KT 05/M06 A3021 RMK A01 T00511063  RH  044%=      5-min Rain = 0
KAM3 130645Z 13005KT 05/M06 A3021 RMK A01 T00501064  RH  044%=      5-min Rain = 0
KAM3 130646Z 13005KT 05/M06 A3021 RMK A01 T00491064  RH  044%=      5-min Rain = 0
KAM3 130647Z 13005KT 05/M06 A3021 RMK A01 T00481064  RH  044%=      5-min Rain = 0
KAM3 130648Z 12004KT 05/M07 A3021 RMK A01 T00471065  RH  044%=      5-min Rain = 0
KAM3 130649Z 12004KT 05/M07 A3021 RMK A01 T00451066  RH  044%=      5-min Rain = 0
KAM3 130650Z 12004KT 04/M07 A3021 RMK A01 T00441065  RH  045%=      5-min Rain = 0
KAM3 130651Z 12004KT 04/M06 A3021 RMK A01 T00441064  RH  045%=      5-min Rain = 0
KAM3 130652Z 12004KT 04/M07 A3021 RMK A01 T00441065  RH  045%=      5-min Rain = 0
KAM3 130653Z 11004KT 04/M07 A3021 RMK A01 T00431065  RH  045%=      5-min Rain = 0
KAM3 130654Z 11004KT 04/M07 A3021 RMK A01 T00431065  RH  045%=      5-min Rain = 0
KAM3 130655Z 09004KT 04/M07 A3021 RMK A01 T00431065  RH  045%=      5-min Rain = 0
KAM3 130656Z 09004KT 04/M07 A3021 RMK A01 T00421066  RH  045%=      5-min Rain = 0
KAM3 130657Z 09004KT 04/M07 A3021 RMK A01 T00411067  RH  045%=      5-min Rain = 0
KAM3 130658Z 09005KT 04/M07 A3021 RMK A01 T00401066  RH  046%=      5-min Rain = 0
KAM3 130659Z 08005KT 04/M07 A3021 RMK A01 T00391066  RH  046%=      5-min Rain = 0
KAM3 130700Z 08005KT 04/M07 A3021 RMK A01 T00391067  RH  046%=      5-min Rain = 0
KAM3 130701Z 07005KT 04/M07 A3021 RMK A01 T00371069  RH  046%=      5-min Rain = 0
KAM3 130702Z 07005KT 04/M07 A3021 RMK A01 T00351069  RH  047%=      5-min Rain = 0
KAM3 130703Z 07006KT 03/M07 A3022 RMK A01 T00331069  RH  047%=      5-min Rain = 0
KAM3 130704Z 07006KT 03/M07 A3022 RMK A01 T00301070  RH  048%=      5-min Rain = 0
KAM3 130705Z 08006KT 03/M07 A3022 RMK A01 T00291071  RH  048%=      5-min Rain = 0
KAM3 130706Z 07007KT 03/M07 A3022 RMK A01 T00271071  RH  048%=      5-min Rain = 0
KAM3 130707Z 07006KT 03/M07 A3022 RMK A01 T00251072  RH  049%=      5-min Rain = 0
KAM3 130708Z 07007KT 02/M07 A3022 RMK A01 T00241071  RH  049%=      5-min Rain = 0
KAM3 130709Z 08006KT 02/M07 A3022 RMK A01 T00231071  RH  050%=      5-min Rain = 0
KAM3 130710Z 08007KT 02/M07 A3022 RMK A01 T00221071  RH  050%=      5-min Rain = 0
KAM3 130711Z 08007KT 02/M07 A3022 RMK A01 T00221071  RH  050%=      5-min Rain = 0
KAM3 130712Z 09006KT 02/M07 A3022 RMK A01 T00221070  RH  051%=      5-min Rain = 0
KAM3 130713Z 10006KT 02/M07 A3022 RMK A01 T00221070  RH  051%=      5-min Rain = 0
KAM3 130714Z 10007KT 02/M07 A3022 RMK A01 T00231069  RH  051%=      5-min Rain = 0
KAM3 130715Z 10007KT 03/M07 A3022 RMK A01 T00251067  RH  050%=      5-min Rain = 0
KAM3 130716Z 10007KT 03/M07 A3022 RMK A01 T00281066  RH  050%=      5-min Rain = 0
KAM3 130717Z 10007KT 03/M07 A3022 RMK A01 T00291068  RH  049%=      5-min Rain = 0
KAM3 130718Z 10007KT 03/M07 A3022 RMK A01 T00291068  RH  049%=      5-min Rain = 0
KAM3 130719Z 11007KT 03/M07 A3022 RMK A01 T00281068  RH  049%=      5-min Rain = 0
KAM3 130720Z 11007KT 03/M07 A3022 RMK A01 T00291067  RH  049%=      5-min Rain = 0
KAM3 130721Z 11007KT 03/M07 A3022 RMK A01 T00301067  RH  049%=      5-min Rain = 0
KAM3 130722Z 11008KT 03/M07 A3022 RMK A01 T00321067  RH  048%=      5-min Rain = 0
KAM3 130723Z 13008KT 03/M07 A3022 RMK A01 T00341066  RH  048%=      5-min Rain = 0
KAM3 130724Z 12008KT 04/M07 A3022 RMK A01 T00351066  RH  048%=      5-min Rain = 0
KAM3 130725Z 13008KT 04/M07 A3022 RMK A01 T00361067  RH  047%=      5-min Rain = 0
KAM3 130726Z 13008KT 04/M07 A3022 RMK A01 T00371067  RH  047%=      5-min Rain = 0
KAM3 130727Z 13008KT 04/M07 A3021 RMK A01 T00381066  RH  046%=      5-min Rain = 0
KAM3 130728Z 12008KT 04/M07 A3022 RMK A01 T00391067  RH  046%=      5-min Rain = 0
KAM3 130729Z 13007KT 04/M07 A3022 RMK A01 T00381067  RH  046%=      5-min Rain = 0
KAM3 130730Z 13008KT 04/M07 A3022 RMK A01 T00381067  RH  046%=      5-min Rain = 0
KAM3 130731Z 13008KT 04/M07 A3022 RMK A01 T00371068  RH  046%=      5-min Rain = 0
KAM3 130732Z 12008KT 04/M07 A3022 RMK A01 T00381068  RH  046%=      5-min Rain = 0
KAM3 130733Z 13007KT 04/M07 A3022 RMK A01 T00361068  RH  046%=      5-min Rain = 0
KAM3 130734Z 13008KT 04/M07 A3022 RMK A01 T00351068  RH  047%=      5-min Rain = 0
KAM3 130735Z 13008KT 04/M07 A3022 RMK A01 T00351068  RH  047%=      5-min Rain = 0
KAM3 130736Z 13007KT 04/M07 A3022 RMK A01 T00351068  RH  047%=      5-min Rain = 0
KAM3 130737Z 13007KT 04/M07 A3022 RMK A01 T00351068  RH  047%=      5-min Rain = 0
KAM3 130738Z 13007KT 04/M07 A3022 RMK A01 T00351069  RH  047%=      5-min Rain = 0
KAM3 130739Z 12007KT 03/M07 A3022 RMK A01 T00341069  RH  047%=      5-min Rain = 0
KAM3 130740Z 12006KT 03/M07 A3022 RMK A01 T00331070  RH  047%=      5-min Rain = 0
KAM3 130741Z 11006KT 03/M07 A3022 RMK A01 T00301071  RH  047%=      5-min Rain = 0
KAM3 130742Z 11005KT 03/M07 A3022 RMK A01 T00281070  RH  048%=      5-min Rain = 0
KAM3 130743Z 11005KT 03/M07 A3022 RMK A01 T00261071  RH  049%=      5-min Rain = 0
KAM3 130744Z 11005KT 02/M07 A3022 RMK A01 T00241071  RH  049%=      5-min Rain = 0
KAM3 130745Z 11005KT 02/M07 A3022 RMK A01 T00231071  RH  050%=      5-min Rain = 0
KAM3 130746Z 12005KT 02/M07 A3022 RMK A01 T00221071  RH  050%=      5-min Rain = 0
KAM3 130747Z 11005KT 02/M07 A3022 RMK A01 T00221071  RH  050%=      5-min Rain = 0
KAM3 130748Z 11004KT 02/M07 A3022 RMK A01 T00211071  RH  050%=      5-min Rain = 0
KAM3 130749Z 10004KT 02/M07 A3022 RMK A01 T00211071  RH  050%=      5-min Rain = 0
KAM3 130750Z 10005KT 02/M07 A3022 RMK A01 T00201071  RH  051%=      5-min Rain = 0
KAM3 130751Z 10005KT 02/M07 A3022 RMK A01 T00191071  RH  051%=      5-min Rain = 0
KAM3 130752Z 10005KT 02/M07 A3022 RMK A01 T00191071  RH  051%=      5-min Rain = 0
KAM3 130753Z 10005KT 02/M07 A3023 RMK A01 T00191071  RH  051%=      5-min Rain = 0
KAM3 130754Z 10006KT 02/M07 A3023 RMK A01 T00181072  RH  051%=      5-min Rain = 0
KAM3 130755Z 09006KT 02/M07 A3023 RMK A01 T00181071  RH  052%=      5-min Rain = 0
KAM3 130756Z 08006KT 02/M07 A3023 RMK A01 T00171071  RH  052%=      5-min Rain = 0
KAM3 130757Z 08007KT 02/M07 A3023 RMK A01 T00171071  RH  052%=      5-min Rain = 0
KAM3 130758Z 09007KT 02/M07 A3023 RMK A01 T00181070  RH  052%=      5-min Rain = 0
KAM3 130759Z 09007KT 02/M07 A3023 RMK A01 T00171069  RH  053%=      5-min Rain = 0
KAM3 130800Z 09007KT 02/M07 A3023 RMK A01 T00161070  RH  053%=      5-min Rain = 0
KAM3 130801Z 10007KT 02/M07 A3023 RMK A01 T00161069  RH  053%=      5-min Rain = 0
KAM3 130802Z 10007KT 02/M07 A3023 RMK A01 T00161068  RH  053%=      5-min Rain = 0
KAM3 130803Z 10007KT 02/M07 A3023 RMK A01 T00161069  RH  053%=      5-min Rain = 0
KAM3 130804Z 11007KT 02/M07 A3023 RMK A01 T00161068  RH  053%=      5-min Rain = 0
KAM3 130805Z 11008KT 02/M07 A3023 RMK A01 T00161068  RH  054%=      5-min Rain = 0
KAM3 130806Z 11008KT 02/M07 A3023 RMK A01 T00161068  RH  054%=      5-min Rain = 0
KAM3 130807Z 11008KT 02/M07 A3023 RMK A01 T00161068  RH  054%=      5-min Rain = 0
KAM3 130808Z 12008KT 02/M07 A3023 RMK A01 T00151068  RH  054%=      5-min Rain = 0
KAM3 130809Z 12008KT 02/M07 A3023 RMK A01 T00151068  RH  054%=      5-min Rain = 0
KAM3 130810Z 12008KT 02/M07 A3022 RMK A01 T00151069  RH  054%=      5-min Rain = 0
KAM3 130811Z 12008KT 01/M07 A3022 RMK A01 T00141069  RH  054%=      5-min Rain = 0
KAM3 130812Z 12008KT 02/M07 A3022 RMK A01 T00151068  RH  054%=      5-min Rain = 0
KAM3 130813Z 11008KT 01/M07 A3023 RMK A01 T00141069  RH  054%=      5-min Rain = 0
KAM3 130814Z 11008KT 02/M07 A3023 RMK A01 T00151069  RH  054%=      5-min Rain = 0
KAM3 130815Z 11008KT 02/M07 A3023 RMK A01 T00151068  RH  054%=      5-min Rain = 0
KAM3 130816Z 11008KT 02/M07 A3023 RMK A01 T00151068  RH  054%=      5-min Rain = 0
KAM3 130817Z 11008KT 01/M07 A3023 RMK A01 T00141068  RH  054%=      5-min Rain = 0
KAM3 130818Z 10008KT 01/M07 A3023 RMK A01 T00141068  RH  054%=      5-min Rain = 0
KAM3 130819Z 11008KT 02/M07 A3023 RMK A01 T00151067  RH  054%=      5-min Rain = 0
KAM3 130820Z 11008KT 02/M07 A3023 RMK A01 T00161067  RH  054%=      5-min Rain = 0
KAM3 130821Z 11008KT 02/M07 A3023 RMK A01 T00161067  RH  054%=      5-min Rain = 0
KAM3 130822Z 11008KT 02/M07 A3022 RMK A01 T00171067  RH  054%=      5-min Rain = 0
KAM3 130823Z 11008KT 02/M07 A3023 RMK A01 T00171067  RH  054%=      5-min Rain = 0
KAM3 130824Z 11008KT 02/M07 A3023 RMK A01 T00171067  RH  054%=      5-min Rain = 0
KAM3 130825Z 11007KT 02/M07 A3023 RMK A01 T00171067  RH  054%=      5-min Rain = 0
KAM3 130826Z 11007KT 02/M07 A3023 RMK A01 T00161068  RH  054%=      5-min Rain = 0
KAM3 130827Z 11007KT 02/M07 A3023 RMK A01 T00171067  RH  054%=      5-min Rain = 0
KAM3 130828Z 11007KT 02/M07 A3023 RMK A01 T00171067  RH  054%=      5-min Rain = 0
KAM3 130829Z 11008KT 02/M07 A3023 RMK A01 T00171067  RH  054%=      5-min Rain = 0
KAM3 130830Z 11007KT 02/M07 A3023 RMK A01 T00171067  RH  054%=      5-min Rain = 0
KAM3 130831Z 11007KT 02/M07 A3023 RMK A01 T00171067  RH  054%=      5-min Rain = 0
KAM3 130832Z 11008KT 02/M07 A3023 RMK A01 T00171068  RH  054%=      5-min Rain = 0
KAM3 130833Z 11008KT 02/M07 A3023 RMK A01 T00171067  RH  054%=      5-min Rain = 0
KAM3 130834Z 11008KT 02/M07 A3023 RMK A01 T00161068  RH  054%=      5-min Rain = 0
KAM3 130835Z 11008KT 02/M07 A3023 RMK A01 T00161068  RH  054%=      5-min Rain = 0
KAM3 130836Z 11008KT 02/M07 A3023 RMK A01 T00151068  RH  054%=      5-min Rain = 0
KAM3 130837Z 12008KT 02/M07 A3023 RMK A01 T00161068  RH  054%=      5-min Rain = 0
KAM3 130838Z 12008KT 02/M07 A3023 RMK A01 T00161068  RH  054%=      5-min Rain = 0
KAM3 130839Z 12007KT 02/M07 A3023 RMK A01 T00161068  RH  054%=      5-min Rain = 0
KAM3 130840Z 12007KT 02/M07 A3022 RMK A01 T00161068  RH  054%=      5-min Rain = 0
KAM3 130841Z 13007KT 02/M07 A3022 RMK A01 T00161068  RH  054%=      5-min Rain = 0
KAM3 130842Z 13007KT 02/M07 A3022 RMK A01 T00161068  RH  054%=      5-min Rain = 0
KAM3 130843Z 13007KT 02/M07 A3022 RMK A01 T00171068  RH  053%=      5-min Rain = 0
KAM3 130844Z 13007KT 02/M07 A3022 RMK A01 T00171068  RH  053%=      5-min Rain = 0
KAM3 130845Z 13007KT 02/M07 A3022 RMK A01 T00171068  RH  053%=      5-min Rain = 0
KAM3 130846Z 13008KT 02/M07 A3022 RMK A01 T00171068  RH  053%=      5-min Rain = 0
KAM3 130847Z 13007KT 02/M07 A3022 RMK A01 T00171068  RH  053%=      5-min Rain = 0
KAM3 130848Z 13007KT 02/M07 A3022 RMK A01 T00171068  RH  053%=      5-min Rain = 0
KAM3 130849Z 13007KT 02/M07 A3022 RMK A01 T00161068  RH  053%=      5-min Rain = 0
KAM3 130850Z 13007KT 02/M07 A3022 RMK A01 T00171068  RH  053%=      5-min Rain = 0
KAM3 130851Z 13007KT 02/M07 A3022 RMK A01 T00161069  RH  053%=      5-min Rain = 0
KAM3 130852Z 13007KT 02/M07 A3022 RMK A01 T00151069  RH  054%=      5-min Rain = 0
KAM3 130853Z 13007KT 01/M07 A3022 RMK A01 T00141069  RH  054%=      5-min Rain = 0
KAM3 130854Z 13007KT 01/M07 A3022 RMK A01 T00141069  RH  054%=      5-min Rain = 0
KAM3 130855Z 13007KT 01/M07 A3022 RMK A01 T00131070  RH  054%=      5-min Rain = 0
KAM3 130856Z 13007KT 01/M07 A3022 RMK A01 T00131069  RH  054%=      5-min Rain = 0
KAM3 130857Z 13007KT 01/M07 A3022 RMK A01 T00121070  RH  054%=      5-min Rain = 0
KAM3 130858Z 13007KT 01/M07 A3022 RMK A01 T00121070  RH  055%=      5-min Rain = 0
KAM3 130859Z 13007KT 01/M07 A3022 RMK A01 T00121070  RH  055%=      5-min Rain = 0
KAM3 130900Z 13007KT 01/M07 A3022 RMK A01 T00111070  RH  055%=      5-min Rain = 0
KAM3 130901Z 13007KT 01/M07 A3022 RMK A01 T00101070  RH  055%=      5-min Rain = 0
KAM3 130902Z 13007KT 01/M07 A3022 RMK A01 T00091070  RH  055%=      5-min Rain = 0
KAM3 130903Z 13007KT 01/M07 A3022 RMK A01 T00091070  RH  056%=      5-min Rain = 0
KAM3 130904Z 13006KT 01/M07 A3022 RMK A01 T00091070  RH  056%=      5-min Rain = 0
KAM3 130905Z 13006KT 01/M07 A3022 RMK A01 T00091070  RH  056%=      5-min Rain = 0
KAM3 130906Z 13007KT 01/M07 A3022 RMK A01 T00091069  RH  056%=      5-min Rain = 0
KAM3 130907Z 13007KT 01/M07 A3022 RMK A01 T00101069  RH  056%=      5-min Rain = 0
KAM3 130908Z 14007KT 01/M07 A3022 RMK A01 T00111068  RH  055%=      5-min Rain = 0
KAM3 130909Z 14007KT 01/M07 A3022 RMK A01 T00121068  RH  055%=      5-min Rain = 0
KAM3 130910Z 14007KT 01/M07 A3022 RMK A01 T00131068  RH  055%=      5-min Rain = 0
KAM3 130911Z 15007KT 01/M07 A3022 RMK A01 T00131069  RH  054%=      5-min Rain = 0
KAM3 130912Z 15007KT 01/M07 A3022 RMK A01 T00131069  RH  054%=      5-min Rain = 0
KAM3 130913Z 15007KT 01/M07 A3022 RMK A01 T00131069  RH  054%=      5-min Rain = 0
KAM3 130914Z 15007KT 01/M07 A3022 RMK A01 T00131070  RH  054%=      5-min Rain = 0
KAM3 130915Z 16007KT 01/M07 A3022 RMK A01 T00131070  RH  054%=      5-min Rain = 0
KAM3 130916Z 16007KT 01/M07 A3022 RMK A01 T00131070  RH  054%=      5-min Rain = 0
KAM3 130917Z 16007KT 01/M07 A3022 RMK A01 T00131070  RH  054%=      5-min Rain = 0
KAM3 130918Z 16007KT 01/M07 A3022 RMK A01 T00141070  RH  054%=      5-min Rain = 0
KAM3 130919Z 16007KT 01/M07 A3022 RMK A01 T00141070  RH  054%=      5-min Rain = 0
KAM3 130920Z 16008KT 02/M07 A3022 RMK A01 T00151070  RH  053%=      5-min Rain = 0
KAM3 130921Z 16008KT 02/M07 A3022 RMK A01 T00151069  RH  053%=      5-min Rain = 0
KAM3 130922Z 16008KT 02/M07 A3022 RMK A01 T00161069  RH  053%=      5-min Rain = 0
KAM3 130923Z 16008KT 02/M07 A3022 RMK A01 T00171069  RH  053%=      5-min Rain = 0
KAM3 130924Z 16008KT 02/M07 A3022 RMK A01 T00181069  RH  052%=      5-min Rain = 0
KAM3 130925Z 16008KT 02/M07 A3022 RMK A01 T00181070  RH  052%=      5-min Rain = 0
KAM3 130926Z 16008KT 02/M07 A3022 RMK A01 T00191069  RH  052%=      5-min Rain = 0
KAM3 130927Z 17008KT 02/M07 A3022 RMK A01 T00201069  RH  052%=      5-min Rain = 0
KAM3 130928Z 17007KT 02/M07 A3022 RMK A01 T00191070  RH  052%=      5-min Rain = 0
KAM3 130929Z 16007KT 02/M07 A3022 RMK A01 T00191070  RH  052%=      5-min Rain = 0
KAM3 130930Z 16007KT 02/M07 A3022 RMK A01 T00201070  RH  051%=      5-min Rain = 0
KAM3 130931Z 16007KT 02/M07 A3022 RMK A01 T00201070  RH  051%=      5-min Rain = 0
KAM3 130932Z 16007KT 02/M07 A3022 RMK A01 T00191070  RH  051%=      5-min Rain = 0
KAM3 130933Z 16006KT 02/M07 A3022 RMK A01 T00201070  RH  051%=      5-min Rain = 0
KAM3 130934Z 15006KT 02/M07 A3022 RMK A01 T00201070  RH  051%=      5-min Rain = 0
KAM3 130935Z 15006KT 02/M07 A3022 RMK A01 T00191070  RH  051%=      5-min Rain = 0
KAM3 130936Z 15005KT 02/M07 A3022 RMK A01 T00191071  RH  051%=      5-min Rain = 0
KAM3 130937Z 13004KT 02/M07 A3022 RMK A01 T00171073  RH  051%=      5-min Rain = 0
KAM3 130938Z 10003KT 01/M08 A3022 RMK A01 T00121076  RH  052%=      5-min Rain = 0
KAM3 130939Z 09003KT 01/M08 A3022 RMK A01 T00071077  RH  053%=      5-min Rain = 0
KAM3 130940Z 08003KT 00/M08 A3022 RMK A01 T00041076  RH  055%=      5-min Rain = 0
KAM3 130941Z 09003KT 00/M07 A3022 RMK A01 T00031074  RH  056%=      5-min Rain = 0
KAM3 130942Z 10003KT 00/M07 A3022 RMK A01 T00031073  RH  057%=      5-min Rain = 0
KAM3 130943Z 11003KT 00/M07 A3022 RMK A01 T00041072  RH  057%=      5-min Rain = 0
KAM3 130944Z 10004KT 01/M07 A3022 RMK A01 T00051072  RH  056%=      5-min Rain = 0
KAM3 130945Z 10003KT 01/M07 A3022 RMK A01 T00081069  RH  056%=      5-min Rain = 0
KAM3 130946Z 11004KT 01/M07 A3022 RMK A01 T00091070  RH  055%=      5-min Rain = 0
KAM3 130947Z 11003KT 01/M07 A3022 RMK A01 T00091070  RH  055%=      5-min Rain = 0
KAM3 130948Z 12003KT 01/M07 A3022 RMK A01 T00101070  RH  055%=      5-min Rain = 0
KAM3 130949Z 13004KT 01/M07 A3022 RMK A01 T00101071  RH  055%=      5-min Rain = 0
KAM3 130950Z 13004KT 01/M07 A3022 RMK A01 T00111070  RH  055%=      5-min Rain = 0
KAM3 130951Z 14004KT 01/M07 A3022 RMK A01 T00131070  RH  054%=      5-min Rain = 0
KAM3 130952Z 14003KT 02/M07 A3022 RMK A01 T00151070  RH  053%=      5-min Rain = 0
KAM3 130953Z 15004KT 02/M07 A3022 RMK A01 T00161070  RH  053%=      5-min Rain = 0
KAM3 130954Z 15004KT 02/M07 A3022 RMK A01 T00171070  RH  052%=      5-min Rain = 0
KAM3 130955Z 15004KT 02/M07 A3022 RMK A01 T00181070  RH  052%=      5-min Rain = 0
KAM3 130956Z 15004KT 02/M07 A3022 RMK A01 T00191070  RH  052%=      5-min Rain = 0
KAM3 130957Z 15004KT 02/M07 A3022 RMK A01 T00191070  RH  052%=      5-min Rain = 0
KAM3 130958Z 15004KT 02/M07 A3022 RMK A01 T00201070  RH  051%=      5-min Rain = 0
KAM3 130959Z 15004KT 02/M07 A3022 RMK A01 T00201070  RH  051%=      5-min Rain = 0
KAM3 131000Z 15004KT 02/M07 A3022 RMK A01 T00211070  RH  051%=      5-min Rain = 0
KAM3 131001Z 15004KT 02/M07 A3022 RMK A01 T00201070  RH  051%=      5-min Rain = 0
KAM3 131002Z 14003KT 02/M07 A3022 RMK A01 T00211070  RH  051%=      5-min Rain = 0
KAM3 131003Z 14003KT 02/M07 A3022 RMK A01 T00211070  RH  051%=      5-min Rain = 0
KAM3 131004Z 14003KT 02/M07 A3022 RMK A01 T00201070  RH  051%=      5-min Rain = 0
KAM3 131005Z 13002KT 02/M07 A3022 RMK A01 T00201070  RH  051%=      5-min Rain = 0
KAM3 131006Z 13002KT 02/M07 A3022 RMK A01 T00201071  RH  051%=      5-min Rain = 0
KAM3 131007Z 13002KT 02/M07 A3022 RMK A01 T00181071  RH  052%=      5-min Rain = 0
KAM3 131008Z 13001KT 02/M07 A3022 RMK A01 T00171071  RH  052%=      5-min Rain = 0
KAM3 131009Z 13001KT 02/M07 A3022 RMK A01 T00161072  RH  052%=      5-min Rain = 0
KAM3 131010Z 12001KT 01/M07 A3023 RMK A01 T00141072  RH  053%=      5-min Rain = 0
KAM3 131011Z 07004KT 01/M07 A3023 RMK A01 T00121073  RH  053%=      5-min Rain = 0
KAM3 131012Z 06004KT 01/M07 A3023 RMK A01 T00111073  RH  054%=      5-min Rain = 0
KAM3 131013Z 04005KT 01/M07 A3023 RMK A01 T00091073  RH  054%=      5-min Rain = 0
KAM3 131014Z 04006KT 01/M07 A3023 RMK A01 T00081072  RH  055%=      5-min Rain = 0
KAM3 131015Z 04006KT 01/M07 A3023 RMK A01 T00071071  RH  056%=      5-min Rain = 0
KAM3 131016Z 04006KT 01/M07 A3023 RMK A01 T00071070  RH  056%=      5-min Rain = 0
KAM3 131017Z 05006KT 01/M07 A3023 RMK A01 T00071070  RH  057%=      5-min Rain = 0
KAM3 131018Z 05006KT 01/M07 A3023 RMK A01 T00061070  RH  057%=      5-min Rain = 0
KAM3 131019Z 05006KT 01/M07 A3023 RMK A01 T00061070  RH  057%=      5-min Rain = 0
KAM3 131020Z 06006KT 01/M07 A3023 RMK A01 T00061070  RH  057%=      5-min Rain = 0
KAM3 131021Z 06006KT 01/M07 A3023 RMK A01 T00051071  RH  057%=      5-min Rain = 0
KAM3 131022Z 06006KT 00/M07 A3023 RMK A01 T00041071  RH  057%=      5-min Rain = 0
KAM3 131023Z 06006KT 00/M07 A3023 RMK A01 T00031071  RH  057%=      5-min Rain = 0
KAM3 131024Z 07006KT 00/M07 A3023 RMK A01 T00031071  RH  058%=      5-min Rain = 0
KAM3 131025Z 07006KT 00/M07 A3024 RMK A01 T00021072  RH  058%=      5-min Rain = 0
KAM3 131026Z 07006KT 00/M07 A3024 RMK A01 T00011072  RH  058%=      5-min Rain = 0
KAM3 131027Z 06007KT 00/M07 A3024 RMK A01 T00011072  RH  058%=      5-min Rain = 0
KAM3 131028Z 06007KT 00/07 A3024 RMK A01 T00-00-73  RH  058%=      5-min Rain = 0
KAM3 131029Z 06007KT M00/M07 A3024 RMK A01 T10011073  RH  058%=      5-min Rain = 0
KAM3 131030Z 05007KT M00/M07 A3024 RMK A01 T10011073  RH  059%=      5-min Rain = 0
KAM3 131031Z 05008KT M00/M07 A3024 RMK A01 T10021073  RH  059%=      5-min Rain = 0
KAM3 131032Z 05008KT M00/M07 A3024 RMK A01 T10031073  RH  059%=      5-min Rain = 0
KAM3 131033Z 05008KT M00/M07 A3024 RMK A01 T10031073  RH  059%=      5-min Rain = 0
KAM3 131034Z 06007KT M00/M07 A3024 RMK A01 T10041074  RH  059%=      5-min Rain = 0
KAM3 131035Z 06007KT M00/M07 A3024 RMK A01 T10041074  RH  059%=      5-min Rain = 0
KAM3 131036Z 06008KT M01/M07 A3024 RMK A01 T10051074  RH  060%=      5-min Rain = 0
KAM3 131037Z 06008KT M01/M07 A3024 RMK A01 T10061074  RH  060%=      5-min Rain = 0
KAM3 131038Z 06009KT M01/M08 A3024 RMK A01 T10071075  RH  060%=      5-min Rain = 0
KAM3 131039Z 06009KT M01/M07 A3025 RMK A01 T10071074  RH  060%=      5-min Rain = 0
KAM3 131040Z 06009KT M01/M07 A3025 RMK A01 T10071074  RH  060%=      5-min Rain = 0
KAM3 131041Z 06010KT M01/M07 A3025 RMK A01 T10071074  RH  061%=      5-min Rain = 0
KAM3 131042Z 06010KT M01/M07 A3025 RMK A01 T10061073  RH  061%=      5-min Rain = 0
KAM3 131043Z 06010KT M00/M07 A3025 RMK A01 T10041071  RH  061%=      5-min Rain = 0
KAM3 131044Z 06009KT M00/M07 A3025 RMK A01 T10031071  RH  060%=      5-min Rain = 0
KAM3 131045Z 06009KT M00/M07 A3025 RMK A01 T10021070  RH  060%=      5-min Rain = 0
KAM3 131046Z 07009KT M00/M07 A3025 RMK A01 T10011070  RH  060%=      5-min Rain = 0
KAM3 131047Z 06009KT 00/07 A3025 RMK A01 T00000-69  RH  059%=      5-min Rain = 0
KAM3 131048Z 06010KT 00/M07 A3025 RMK A01 T00021069  RH  059%=      5-min Rain = 0
KAM3 131049Z 07010KT 00/M07 A3025 RMK A01 T00031068  RH  059%=      5-min Rain = 0
KAM3 131050Z 07010KT 00/M07 A3025 RMK A01 T00041068  RH  058%=      5-min Rain = 0
KAM3 131051Z 07009KT 01/M07 A3025 RMK A01 T00051068  RH  058%=      5-min Rain = 0
KAM3 131052Z 07009KT 01/M07 A3025 RMK A01 T00051069  RH  058%=      5-min Rain = 0
KAM3 131053Z 07009KT 01/M07 A3025 RMK A01 T00051069  RH  058%=      5-min Rain = 0
KAM3 131054Z 06009KT 01/M07 A3025 RMK A01 T00051069  RH  058%=      5-min Rain = 0
KAM3 131055Z 06009KT 00/M07 A3025 RMK A01 T00041070  RH  058%=      5-min Rain = 0
KAM3 131056Z 06009KT 00/M07 A3025 RMK A01 T00031070  RH  058%=      5-min Rain = 0
KAM3 131057Z 07009KT 00/M07 A3025 RMK A01 T00031070  RH  058%=      5-min Rain = 0
KAM3 131058Z 07008KT 00/M07 A3025 RMK A01 T00031070  RH  058%=      5-min Rain = 0
KAM3 131059Z 07008KT 00/M07 A3025 RMK A01 T00041069  RH  058%=      5-min Rain = 0
KAM3 131100Z 07008KT 00/M07 A3025 RMK A01 T00041069  RH  058%=      5-min Rain = 0
KAM3 131101Z 08008KT 00/M07 A3025 RMK A01 T00041068  RH  058%=      5-min Rain = 0
KAM3 131102Z 08007KT 01/M07 A3025 RMK A01 T00051069  RH  058%=      5-min Rain = 0
KAM3 131103Z 09009KT 00/M07 A3025 RMK A01 T00041069  RH  058%=      5-min Rain = 0
KAM3 131104Z 09008KT 01/M07 A3025 RMK A01 T00051068  RH  058%=      5-min Rain = 0
KAM3 131105Z 10008KT 01/M07 A3025 RMK A01 T00061067  RH  058%=      5-min Rain = 0
KAM3 131106Z 10008KT 01/M07 A3025 RMK A01 T00061068  RH  058%=      5-min Rain = 0
KAM3 131107Z 10008KT 01/M07 A3025 RMK A01 T00071067  RH  058%=      5-min Rain = 0
KAM3 131108Z 10008KT 01/M07 A3025 RMK A01 T00091065  RH  058%=      5-min Rain = 0
KAM3 131109Z 10009KT 01/M06 A3025 RMK A01 T00101064  RH  057%=      5-min Rain = 0
KAM3 131110Z 11009KT 01/M06 A3025 RMK A01 T00121063  RH  057%=      5-min Rain = 0
KAM3 131111Z 11009KT 01/M06 A3025 RMK A01 T00141063  RH  057%=      5-min Rain = 0
KAM3 131112Z 11010KT 02/M06 A3025 RMK A01 T00151063  RH  056%=      5-min Rain = 0
KAM3 131113Z 11009KT 02/M06 A3025 RMK A01 T00171063  RH  056%=      5-min Rain = 0
KAM3 131114Z 11009KT 02/M06 A3025 RMK A01 T00171063  RH  055%=      5-min Rain = 0
KAM3 131115Z 12010KT 02/M06 A3025 RMK A01 T00181063  RH  055%=      5-min Rain = 0
KAM3 131116Z 12010KT 02/M06 A3025 RMK A01 T00181063  RH  055%=      5-min Rain = 0
KAM3 131117Z 12009KT 02/M06 A3025 RMK A01 T00181063  RH  055%=      5-min Rain = 0
KAM3 131118Z 12010KT 02/M06 A3025 RMK A01 T00191063  RH  055%=      5-min Rain = 0
KAM3 131119Z 12009KT 02/M06 A3025 RMK A01 T00191063  RH  054%=      5-min Rain = 0
KAM3 131120Z 12009KT 02/M06 A3025 RMK A01 T00191063  RH  054%=      5-min Rain = 0
KAM3 131121Z 13009KT 02/M06 A3025 RMK A01 T00191063  RH  054%=      5-min Rain = 0
KAM3 131122Z 13009KT 02/M06 A3025 RMK A01 T00181064  RH  054%=      5-min Rain = 0
KAM3 131123Z 13008KT 02/M06 A3025 RMK A01 T00181064  RH  055%=      5-min Rain = 0
KAM3 131124Z 13009KT 02/M06 A3025 RMK A01 T00181063  RH  055%=      5-min Rain = 0
KAM3 131125Z 13009KT 02/M06 A3025 RMK A01 T00171064  RH  055%=      5-min Rain = 0
KAM3 131126Z 13009KT 02/M06 A3025 RMK A01 T00181063  RH  055%=      5-min Rain = 0
KAM3 131127Z 13009KT 02/M06 A3025 RMK A01 T00191063  RH  055%=      5-min Rain = 0
KAM3 131128Z 14009KT 02/M06 A3025 RMK A01 T00181063  RH  055%=      5-min Rain = 0
KAM3 131129Z 14009KT 02/M06 A3025 RMK A01 T00191063  RH  055%=      5-min Rain = 0
KAM3 131130Z 14009KT 02/M06 A3025 RMK A01 T00191063  RH  054%=      5-min Rain = 0
KAM3 131131Z 15009KT 02/M06 A3025 RMK A01 T00201063  RH  054%=      5-min Rain = 0
KAM3 131132Z 15009KT 02/M06 A3025 RMK A01 T00201063  RH  054%=      5-min Rain = 0
KAM3 131133Z 15009KT 02/M06 A3025 RMK A01 T00201063  RH  054%=      5-min Rain = 0
KAM3 131134Z 15009KT 02/M06 A3025 RMK A01 T00201063  RH  054%=      5-min Rain = 0
KAM3 131135Z 15009KT 02/M06 A3025 RMK A01 T00201063  RH  054%=      5-min Rain = 0
KAM3 131136Z 15009KT 02/M06 A3025 RMK A01 T00201063  RH  054%=      5-min Rain = 0
KAM3 131137Z 15009KT 02/M06 A3025 RMK A01 T00201063  RH  054%=      5-min Rain = 0
KAM3 131138Z 15008KT 02/M06 A3025 RMK A01 T00201063  RH  054%=      5-min Rain = 0
KAM3 131139Z 15009KT 02/M06 A3025 RMK A01 T00201063  RH  054%=      5-min Rain = 0
KAM3 131140Z 15009KT 02/M06 A3025 RMK A01 T00201063  RH  054%=      5-min Rain = 0
KAM3 131141Z 16009KT 02/M06 A3025 RMK A01 T00201063  RH  054%=      5-min Rain = 0
KAM3 131142Z 16008KT 02/M06 A3025 RMK A01 T00201063  RH  054%=      5-min Rain = 0
KAM3 131143Z 16009KT 02/M06 A3025 RMK A01 T00201063  RH  054%=      5-min Rain = 0
KAM3 131144Z 16009KT 02/M06 A3025 RMK A01 T00211063  RH  054%=      5-min Rain = 0
KAM3 131145Z 16009KT 02/M06 A3025 RMK A01 T00211063  RH  054%=      5-min Rain = 0
KAM3 131146Z 16009KT 02/M06 A3025 RMK A01 T00221063  RH  054%=      5-min Rain = 0
KAM3 131147Z 16009KT 02/M06 A3025 RMK A01 T00221062  RH  054%=      5-min Rain = 0
KAM3 131148Z 16008KT 02/M06 A3025 RMK A01 T00231062  RH  053%=      5-min Rain = 0
KAM3 131149Z 16008KT 02/M06 A3025 RMK A01 T00231062  RH  053%=      5-min Rain = 0
KAM3 131150Z 16008KT 02/M06 A3025 RMK A01 T00231062  RH  053%=      5-min Rain = 0
KAM3 131151Z 16008KT 02/M06 A3025 RMK A01 T00241062  RH  053%=      5-min Rain = 0
KAM3 131152Z 16007KT 02/M06 A3025 RMK A01 T00241062  RH  053%=      5-min Rain = 0
KAM3 131153Z 16007KT 03/M06 A3025 RMK A01 T00251062  RH  053%=      5-min Rain = 0
KAM3 131154Z 16008KT 03/M06 A3025 RMK A01 T00251062  RH  053%=      5-min Rain = 0
KAM3 131155Z 15008KT 03/M06 A3025 RMK A01 T00251062  RH  053%=      5-min Rain = 0
KAM3 131156Z 15007KT 03/M06 A3025 RMK A01 T00261061  RH  052%=      5-min Rain = 0
KAM3 131157Z 15007KT 03/M06 A3025 RMK A01 T00271061  RH  052%=      5-min Rain = 0
KAM3 131158Z 15007KT 03/M06 A3025 RMK A01 T00271062  RH  052%=      5-min Rain = 0
KAM3 131159Z 15007KT 03/M06 A3025 RMK A01 T00271062  RH  052%=      5-min Rain = 0
KAM3 131200Z 15007KT 03/M06 A3025 RMK A01 T00281062  RH  052%=      5-min Rain = 0
KAM3 131201Z 15007KT 03/M06 A3025 RMK A01 T00281062  RH  052%=      5-min Rain = 0
KAM3 131202Z 15007KT 03/M06 A3025 RMK A01 T00281061  RH  052%=      5-min Rain = 0
KAM3 131203Z 15007KT 03/M06 A3025 RMK A01 T00281062  RH  051%=      5-min Rain = 0
KAM3 131204Z 15007KT 03/M06 A3025 RMK A01 T00291062  RH  051%=      5-min Rain = 0
KAM3 131205Z 15007KT 03/M06 A3025 RMK A01 T00291062  RH  051%=      5-min Rain = 0
KAM3 131206Z 15006KT 03/M06 A3025 RMK A01 T00291062  RH  051%=      5-min Rain = 0
KAM3 131207Z 15006KT 03/M06 A3025 RMK A01 T00291062  RH  051%=      5-min Rain = 0
KAM3 131208Z 15006KT 03/M06 A3025 RMK A01 T00291062  RH  051%=      5-min Rain = 0
KAM3 131209Z 15006KT 03/M06 A3025 RMK A01 T00291062  RH  051%=      5-min Rain = 0
KAM3 131210Z 15006KT 03/M06 A3025 RMK A01 T00281062  RH  051%=      5-min Rain = 0
KAM3 131211Z 15005KT 03/M06 A3025 RMK A01 T00291062  RH  051%=      5-min Rain = 0
KAM3 131212Z 15006KT 03/M06 A3026 RMK A01 T00291062  RH  051%=      5-min Rain = 0
KAM3 131213Z 15005KT 03/M06 A3026 RMK A01 T00291062  RH  051%=      5-min Rain = 0
KAM3 131214Z 15005KT 03/M06 A3026 RMK A01 T00291062  RH  051%=      5-min Rain = 0
KAM3 131215Z 15005KT 03/M06 A3026 RMK A01 T00281062  RH  051%=      5-min Rain = 0
KAM3 131216Z 15005KT 03/M06 A3026 RMK A01 T00281062  RH  051%=      5-min Rain = 0
KAM3 131217Z 15004KT 03/M06 A3026 RMK A01 T00281062  RH  052%=      5-min Rain = 0
KAM3 131218Z 14004KT 03/M06 A3026 RMK A01 T00281062  RH  052%=      5-min Rain = 0
KAM3 131219Z 15004KT 03/M06 A3026 RMK A01 T00271063  RH  052%=      5-min Rain = 0
KAM3 131220Z 14003KT 03/M06 A3026 RMK A01 T00271063  RH  052%=      5-min Rain = 0
KAM3 131221Z 15004KT 03/M06 A3026 RMK A01 T00271063  RH  052%=      5-min Rain = 0
KAM3 131222Z 14003KT 03/M06 A3026 RMK A01 T00261063  RH  052%=      5-min Rain = 0
KAM3 131223Z 14002KT 03/M06 A3027 RMK A01 T00261063  RH  052%=      5-min Rain = 0
KAM3 131224Z 14003KT 03/M06 A3027 RMK A01 T00261063  RH  052%=      5-min Rain = 0
KAM3 131225Z 13002KT 03/M06 A3027 RMK A01 T00251063  RH  052%=      5-min Rain = 0
KAM3 131226Z 13001KT 03/M06 A3027 RMK A01 T00251063  RH  052%=      5-min Rain = 0
KAM3 131227Z 13000KT 03/M06 A3027 RMK A01 T00251063  RH  052%=      5-min Rain = 0
KAM3 131228Z 00000KT 02/M06 A3027 RMK A01 T00241064  RH  052%=      5-min Rain = 0
KAM3 131229Z 00000KT 02/M06 A3027 RMK A01 T00231064  RH  053%=      5-min Rain = 0
KAM3 131230Z 13000KT 02/M06 A3027 RMK A01 T00221064  RH  053%=      5-min Rain = 0
KAM3 131231Z 07003KT 02/M06 A3028 RMK A01 T00221064  RH  053%=      5-min Rain = 0
KAM3 131232Z 05003KT 02/M06 A3028 RMK A01 T00211063  RH  053%=      5-min Rain = 0
KAM3 131233Z 04004KT 02/M06 A3028 RMK A01 T00211063  RH  054%=      5-min Rain = 0
KAM3 131234Z 04003KT 02/M06 A3028 RMK A01 T00221062  RH  054%=      5-min Rain = 0
KAM3 131235Z 04003KT 02/M06 A3028 RMK A01 T00211062  RH  054%=      5-min Rain = 0
KAM3 131236Z 05003KT 02/M06 A3028 RMK A01 T00221062  RH  054%=      5-min Rain = 0
KAM3 131237Z 06002KT 02/M06 A3028 RMK A01 T00221062  RH  054%=      5-min Rain = 0
KAM3 131238Z 06002KT 02/M06 A3028 RMK A01 T00221062  RH  054%=      5-min Rain = 0
KAM3 131239Z 06002KT 02/M06 A3028 RMK A01 T00221062  RH  054%=      5-min Rain = 0
KAM3 131240Z 07002KT 02/M06 A3028 RMK A01 T00221062  RH  054%=      5-min Rain = 0
KAM3 131241Z 08002KT 02/M06 A3028 RMK A01 T00221062  RH  054%=      5-min Rain = 0
KAM3 131242Z 10002KT 02/M06 A3028 RMK A01 T00221062  RH  054%=      5-min Rain = 0
KAM3 131243Z 09002KT 02/M06 A3028 RMK A01 T00231062  RH  054%=      5-min Rain = 0
KAM3 131244Z 09002KT 02/M06 A3028 RMK A01 T00221062  RH  054%=      5-min Rain = 0
KAM3 131245Z 08003KT 02/M06 A3028 RMK A01 T00221062  RH  054%=      5-min Rain = 0
KAM3 131246Z 08003KT 02/M06 A3028 RMK A01 T00221062  RH  054%=      5-min Rain = 0
KAM3 131247Z 08003KT 02/M06 A3028 RMK A01 T00221062  RH  054%=      5-min Rain = 0
KAM3 131248Z 08003KT 02/M06 A3028 RMK A01 T00221062  RH  054%=      5-min Rain = 0
KAM3 131249Z 07003KT 02/M06 A3028 RMK A01 T00221061  RH  054%=      5-min Rain = 0
KAM3 131250Z 07003KT 02/M06 A3028 RMK A01 T00221061  RH  054%=      5-min Rain = 0
KAM3 131251Z 07004KT 02/M06 A3028 RMK A01 T00221061  RH  054%=      5-min Rain = 0
KAM3 131252Z 06003KT 02/M06 A3028 RMK A01 T00221061  RH  054%=      5-min Rain = 0
KAM3 131253Z 06004KT 02/M06 A3029 RMK A01 T00221061  RH  054%=      5-min Rain = 0
KAM3 131254Z 05004KT 02/M06 A3029 RMK A01 T00211061  RH  054%=      5-min Rain = 0
KAM3 131255Z 04004KT 02/M06 A3029 RMK A01 T00211062  RH  054%=      5-min Rain = 0
KAM3 131256Z 03004KT 02/M06 A3029 RMK A01 T00221061  RH  054%=      5-min Rain = 0
KAM3 131257Z 03005KT 02/M06 A3029 RMK A01 T00231061  RH  054%=      5-min Rain = 0
KAM3 131258Z 03005KT 02/M06 A3029 RMK A01 T00231060  RH  054%=      5-min Rain = 0
KAM3 131259Z 03005KT 02/M06 A3029 RMK A01 T00231060  RH  054%=      5-min Rain = 0
KAM3 131300Z 03006KT 02/M06 A3029 RMK A01 T00231060  RH  054%=      5-min Rain = 0
KAM3 131301Z 04006KT 02/M06 A3029 RMK A01 T00231060  RH  054%=      5-min Rain = 0
KAM3 131302Z 04006KT 02/M06 A3029 RMK A01 T00231060  RH  054%=      5-min Rain = 0
KAM3 131303Z 05005KT 02/M06 A3029 RMK A01 T00231059  RH  054%=      5-min Rain = 0
KAM3 131304Z 05006KT 02/M06 A3029 RMK A01 T00231060  RH  054%=      5-min Rain = 0
KAM3 131305Z 05005KT 02/M06 A3029 RMK A01 T00221060  RH  055%=      5-min Rain = 0
KAM3 131306Z 06005KT 02/M06 A3029 RMK A01 T00221060  RH  055%=      5-min Rain = 0
KAM3 131307Z 06005KT 02/M06 A3029 RMK A01 T00231059  RH  055%=      5-min Rain = 0
KAM3 131308Z 06006KT 02/M06 A3029 RMK A01 T00221059  RH  055%=      5-min Rain = 0
KAM3 131309Z 06006KT 02/M06 A3029 RMK A01 T00221059  RH  055%=      5-min Rain = 0
KAM3 131310Z 06006KT 02/M06 A3029 RMK A01 T00231059  RH  055%=      5-min Rain = 0
KAM3 131311Z 06006KT 02/M06 A3029 RMK A01 T00221060  RH  055%=      5-min Rain = 0
KAM3 131312Z 06006KT 02/M06 A303 RMK A01 T00231059  RH  055%=      5-min Rain = 0
KAM3 131313Z 06006KT 02/M06 A303 RMK A01 T00231059  RH  055%=      5-min Rain = 0
KAM3 131314Z 06006KT 02/M06 A303 RMK A01 T00231059  RH  055%=      5-min Rain = 0
KAM3 131315Z 07006KT 02/M06 A303 RMK A01 T00231059  RH  054%=      5-min Rain = 0
KAM3 131316Z 06006KT 02/M06 A303 RMK A01 T00241059  RH  054%=      5-min Rain = 0
KAM3 131317Z 06006KT 02/M06 A303 RMK A01 T00241059  RH  054%=      5-min Rain = 0
KAM3 131318Z 06006KT 02/M06 A303 RMK A01 T00241059  RH  054%=      5-min Rain = 0
KAM3 131319Z 07006KT 02/M06 A303 RMK A01 T00241059  RH  054%=      5-min Rain = 0
KAM3 131320Z 07006KT 02/M06 A303 RMK A01 T00241059  RH  054%=      5-min Rain = 0
KAM3 131321Z 07006KT 03/M06 A303 RMK A01 T00251058  RH  054%=      5-min Rain = 0
KAM3 131322Z 07006KT 03/M06 A303 RMK A01 T00261058  RH  054%=      5-min Rain = 0
KAM3 131323Z 08006KT 03/M06 A303 RMK A01 T00261058  RH  054%=      5-min Rain = 0
KAM3 131324Z 08007KT 03/M06 A303 RMK A01 T00271058  RH  054%=      5-min Rain = 0
KAM3 131325Z 08007KT 03/M06 A303 RMK A01 T00281058  RH  053%=      5-min Rain = 0
KAM3 131326Z 08006KT 03/M06 A303 RMK A01 T00281058  RH  053%=      5-min Rain = 0
KAM3 131327Z 07006KT 03/M06 A303 RMK A01 T00291058  RH  053%=      5-min Rain = 0
KAM3 131328Z 07007KT 03/M06 A303 RMK A01 T00291058  RH  053%=      5-min Rain = 0
KAM3 131329Z 07007KT 03/M06 A303 RMK A01 T00291058  RH  053%=      5-min Rain = 0
KAM3 131330Z 07006KT 03/M06 A303 RMK A01 T00291058  RH  053%=      5-min Rain = 0
KAM3 131331Z 07006KT 03/M06 A3031 RMK A01 T00301058  RH  053%=      5-min Rain = 0
KAM3 131332Z 07006KT 03/M06 A3031 RMK A01 T00301058  RH  053%=      5-min Rain = 0
KAM3 131333Z 07007KT 03/M06 A3031 RMK A01 T00301058  RH  053%=      5-min Rain = 0
KAM3 131334Z 06007KT 03/M06 A3031 RMK A01 T00301058  RH  052%=      5-min Rain = 0
KAM3 131335Z 05006KT 03/M06 A3031 RMK A01 T00311057  RH  052%=      5-min Rain = 0
KAM3 131336Z 05006KT 03/M06 A3031 RMK A01 T00311057  RH  053%=      5-min Rain = 0
KAM3 131337Z 06006KT 03/M06 A3031 RMK A01 T00311057  RH  053%=      5-min Rain = 0
KAM3 131338Z 06005KT 03/M06 A3031 RMK A01 T00311057  RH  053%=      5-min Rain = 0
KAM3 131339Z 06005KT 03/M06 A3031 RMK A01 T00311057  RH  053%=      5-min Rain = 0
KAM3 131340Z 05005KT 03/M06 A3031 RMK A01 T00311057  RH  053%=      5-min Rain = 0
KAM3 131341Z 06005KT 03/M06 A3031 RMK A01 T00311056  RH  053%=      5-min Rain = 0
KAM3 131342Z 06006KT 03/M06 A3031 RMK A01 T00311056  RH  053%=      5-min Rain = 0
KAM3 131343Z 07006KT 03/M06 A3031 RMK A01 T00311056  RH  053%=      5-min Rain = 0
KAM3 131344Z 07005KT 03/M06 A3031 RMK A01 T00311056  RH  053%=      5-min Rain = 0
KAM3 131345Z 08005KT 03/M06 A3031 RMK A01 T00321056  RH  053%=      5-min Rain = 0
KAM3 131346Z 08006KT 03/M06 A3031 RMK A01 T00321056  RH  052%=      5-min Rain = 0
KAM3 131347Z 08007KT 03/M06 A3031 RMK A01 T00321056  RH  053%=      5-min Rain = 0
KAM3 131348Z 08007KT 03/M06 A3031 RMK A01 T00321055  RH  053%=      5-min Rain = 0
KAM3 131349Z 09008KT 03/M06 A3031 RMK A01 T00321056  RH  053%=      5-min Rain = 0
KAM3 131350Z 10009KT 03/M06 A3031 RMK A01 T00321056  RH  052%=      5-min Rain = 0
KAM3 131351Z 10008KT 03/M06 A3032 RMK A01 T00331056  RH  052%=      5-min Rain = 0
KAM3 131352Z 09008KT 03/M06 A3032 RMK A01 T00331056  RH  052%=      5-min Rain = 0
KAM3 131353Z 09007KT 03/M06 A3032 RMK A01 T00331056  RH  052%=      5-min Rain = 0
KAM3 131354Z 09007KT 03/M06 A3032 RMK A01 T00331056  RH  052%=      5-min Rain = 0
KAM3 131355Z 09006KT 03/M06 A3032 RMK A01 T00331055  RH  052%=      5-min Rain = 0
KAM3 131356Z 09007KT 03/M06 A3032 RMK A01 T00331056  RH  052%=      5-min Rain = 0
KAM3 131357Z 09006KT 03/M06 A3032 RMK A01 T00331055  RH  052%=      5-min Rain = 0
KAM3 131358Z 10007KT 03/M06 A3032 RMK A01 T00331056  RH  052%=      5-min Rain = 0
KAM3 131359Z 11008KT 03/M06 A3032 RMK A01 T00331056  RH  052%=      5-min Rain = 0
KAM3 131400Z 11009KT 03/M06 A3032 RMK A01 T00331056  RH  052%=      5-min Rain = 0
KAM3 131401Z 11008KT 03/M06 A3032 RMK A01 T00331056  RH  052%=      5-min Rain = 0
KAM3 131402Z 11008KT 03/M06 A3032 RMK A01 T00331056  RH  052%=      5-min Rain = 0
KAM3 131403Z 11009KT 03/M06 A3032 RMK A01 T00341056  RH  052%=      5-min Rain = 0
KAM3 131404Z 11008KT 03/M06 A3032 RMK A01 T00341056  RH  052%=      5-min Rain = 0
KAM3 131405Z 11007KT 03/M06 A3032 RMK A01 T00341056  RH  051%=      5-min Rain = 0
KAM3 131406Z 11007KT 04/M06 A3032 RMK A01 T00351056  RH  051%=      5-min Rain = 0
KAM3 131407Z 11007KT 04/M06 A3032 RMK A01 T00351056  RH  051%=      5-min Rain = 0
KAM3 131408Z 11007KT 04/M06 A3032 RMK A01 T00351056  RH  051%=      5-min Rain = 0
KAM3 131409Z 12007KT 04/M06 A3032 RMK A01 T00351056  RH  051%=      5-min Rain = 0
KAM3 131410Z 11006KT 04/M06 A3032 RMK A01 T00351056  RH  051%=      5-min Rain = 0
KAM3 131411Z 12007KT 04/M06 A3032 RMK A01 T00351056  RH  051%=      5-min Rain = 0
KAM3 131412Z 11006KT 04/M06 A3032 RMK A01 T00361055  RH  051%=      5-min Rain = 0
KAM3 131413Z 12007KT 04/M06 A3032 RMK A01 T00361055  RH  051%=      5-min Rain = 0
KAM3 131414Z 12008KT 04/M06 A3032 RMK A01 T00361056  RH  051%=      5-min Rain = 0
KAM3 131415Z 12008KT 04/M06 A3032 RMK A01 T00361057  RH  051%=      5-min Rain = 0
KAM3 131416Z 12009KT 04/M06 A3032 RMK A01 T00361057  RH  051%=      5-min Rain = 0
KAM3 131417Z 12010KT 04/M06 A3032 RMK A01 T00361057  RH  051%=      5-min Rain = 0
KAM3 131418Z 13009KT 04/M06 A3032 RMK A01 T00361057  RH  051%=      5-min Rain = 0
KAM3 131419Z 13008KT 04/M06 A3032 RMK A01 T00361057  RH  051%=      5-min Rain = 0
KAM3 131420Z 13009KT 04/M06 A3032 RMK A01 T00361057  RH  051%=      5-min Rain = 0
KAM3 131421Z 13008KT 04/M06 A3032 RMK A01 T00361057  RH  050%=      5-min Rain = 0
KAM3 131422Z 13010KT 04/M06 A3032 RMK A01 T00371057  RH  050%=      5-min Rain = 0
KAM3 131423Z 13010KT 04/M06 A3032 RMK A01 T00371058  RH  050%=      5-min Rain = 0
KAM3 131424Z 13009KT 04/M06 A3032 RMK A01 T00371058  RH  050%=      5-min Rain = 0
KAM3 131425Z 13008KT 04/M06 A3032 RMK A01 T00371057  RH  050%=      5-min Rain = 0
KAM3 131426Z 13011KT 04/M06 A3032 RMK A01 T00371057  RH  050%=      5-min Rain = 0
KAM3 131427Z 13011KT 04/M06 A3032 RMK A01 T00371057  RH  050%=      5-min Rain = 0
KAM3 131428Z 13010KT 04/M06 A3032 RMK A01 T00371057  RH  050%=      5-min Rain = 0
KAM3 131429Z 13009KT 04/M06 A3032 RMK A01 T00371057  RH  050%=      5-min Rain = 0
KAM3 131430Z 13010KT 04/M06 A3032 RMK A01 T00371057  RH  050%=      5-min Rain = 0
KAM3 131431Z 13007KT 04/M06 A3032 RMK A01 T00381056  RH  050%=      5-min Rain = 0
KAM3 131432Z 13007KT 04/M06 A3032 RMK A01 T00391056  RH  050%=      5-min Rain = 0
KAM3 131433Z 13010KT 04/M06 A3032 RMK A01 T00391056  RH  050%=      5-min Rain = 0
KAM3 131434Z 12010KT 04/M06 A3033 RMK A01 T00401057  RH  049%=      5-min Rain = 0
KAM3 131435Z 12009KT 04/M06 A3033 RMK A01 T00391057  RH  050%=      5-min Rain = 0
KAM3 131436Z 12008KT 04/M06 A3033 RMK A01 T00401056  RH  050%=      5-min Rain = 0
KAM3 131437Z 12008KT 04/M06 A3033 RMK A01 T00401057  RH  049%=      5-min Rain = 0
KAM3 131438Z 11008KT 04/M06 A3033 RMK A01 T00401056  RH  049%=      5-min Rain = 0
KAM3 131439Z 12007KT 04/M06 A3033 RMK A01 T00421055  RH  049%=      5-min Rain = 0
KAM3 131440Z 11008KT 04/M06 A3033 RMK A01 T00421055  RH  049%=      5-min Rain = 0
KAM3 131441Z 12008KT 04/M06 A3033 RMK A01 T00441055  RH  049%=      5-min Rain = 0
KAM3 131442Z 12008KT 04/M06 A3033 RMK A01 T00441055  RH  048%=      5-min Rain = 0
KAM3 131443Z 12007KT 05/M06 A3033 RMK A01 T00461055  RH  048%=      5-min Rain = 0
KAM3 131444Z 12008KT 05/M05 A3033 RMK A01 T00491053  RH  048%=      5-min Rain = 0
KAM3 131445Z 12008KT 05/M05 A3033 RMK A01 T00501054  RH  047%=      5-min Rain = 0
KAM3 131446Z 11007KT 05/M05 A3033 RMK A01 T00511054  RH  046%=      5-min Rain = 0
KAM3 131447Z 12007KT 05/M06 A3033 RMK A01 T00501055  RH  046%=      5-min Rain = 0
KAM3 131448Z 13007KT 05/M06 A3033 RMK A01 T00511055  RH  046%=      5-min Rain = 0
KAM3 131449Z 13007KT 05/M06 A3033 RMK A01 T00521055  RH  046%=      5-min Rain = 0
KAM3 131450Z 12007KT 05/M05 A3033 RMK A01 T00531054  RH  046%=      5-min Rain = 0
KAM3 131451Z 10010KT 06/M05 A3033 RMK A01 T00551053  RH  046%=      5-min Rain = 0
KAM3 131452Z 09009KT 06/M06 A3033 RMK A01 T00551055  RH  045%=      5-min Rain = 0
KAM3 131453Z 11009KT 05/M06 A3033 RMK A01 T00541055  RH  045%=      5-min Rain = 0
KAM3 131454Z 10009KT 05/M06 A3034 RMK A01 T00531057  RH  045%=      5-min Rain = 0
KAM3 131455Z 09008KT 05/M06 A3034 RMK A01 T00511057  RH  046%=      5-min Rain = 0
KAM3 131456Z 10009KT 05/M06 A3034 RMK A01 T00511056  RH  046%=      5-min Rain = 0
KAM3 131457Z 10008KT 05/M06 A3034 RMK A01 T00521056  RH  046%=      5-min Rain = 0
KAM3 131458Z 10009KT 05/M06 A3034 RMK A01 T00521056  RH  046%=      5-min Rain = 0
KAM3 131459Z 10010KT 05/M06 A3034 RMK A01 T00521056  RH  046%=      5-min Rain = 0
KAM3 131500Z 10009KT 05/M06 A3034 RMK A01 T00531056  RH  045%=      5-min Rain = 0
KAM3 131501Z 11010KT 05/M06 A3034 RMK A01 T00531056  RH  045%=      5-min Rain = 0
KAM3 131502Z 09009KT 06/M06 A3034 RMK A01 T00551055  RH  045%=      5-min Rain = 0
KAM3 131503Z 10010KT 06/M05 A3034 RMK A01 T00561054  RH  045%=      5-min Rain = 0
KAM3 131504Z 10009KT 06/M06 A3034 RMK A01 T00551056  RH  045%=      5-min Rain = 0
KAM3 131505Z 10010KT 05/M06 A3034 RMK A01 T00541056  RH  045%=      5-min Rain = 0
KAM3 131506Z 11009KT 05/M06 A3034 RMK A01 T00541056  RH  045%=      5-min Rain = 0
KAM3 131507Z 10008KT 05/M06 A3034 RMK A01 T00531056  RH  045%=      5-min Rain = 0
KAM3 131508Z 10008KT 05/M05 A3034 RMK A01 T00541054  RH  046%=      5-min Rain = 0
KAM3 131509Z 10008KT 06/M05 A3034 RMK A01 T00551054  RH  045%=      5-min Rain = 0
KAM3 131510Z 11008KT 06/M05 A3034 RMK A01 T00561054  RH  045%=      5-min Rain = 0
KAM3 131511Z 10007KT 06/M06 A3034 RMK A01 T00561055  RH  045%=      5-min Rain = 0
KAM3 131512Z 11007KT 06/M05 A3034 RMK A01 T00561054  RH  045%=      5-min Rain = 0
KAM3 131513Z 10008KT 06/M05 A3034 RMK A01 T00561054  RH  045%=      5-min Rain = 0
KAM3 131514Z 11008KT 06/M05 A3034 RMK A01 T00571053  RH  045%=      5-min Rain = 0
KAM3 131515Z 11008KT 06/M05 A3034 RMK A01 T00571053  RH  045%=      5-min Rain = 0
KAM3 131516Z 11008KT 06/M05 A3034 RMK A01 T00581054  RH  044%=      5-min Rain = 0
KAM3 131517Z 11008KT 06/M05 A3034 RMK A01 T00571054  RH  045%=      5-min Rain = 0
KAM3 131518Z 11007KT 06/M05 A3034 RMK A01 T00561054  RH  045%=      5-min Rain = 0
KAM3 131519Z 09007KT 06/M05 A3034 RMK A01 T00561053  RH  045%=      5-min Rain = 0
KAM3 131520Z 11007KT 06/M05 A3034 RMK A01 T00561053  RH  045%=      5-min Rain = 0
KAM3 131521Z 11006KT 06/M05 A3034 RMK A01 T00581052  RH  045%=      5-min Rain = 0
KAM3 131522Z 11007KT 06/M05 A3034 RMK A01 T00581053  RH  045%=      5-min Rain = 0
KAM3 131523Z 11008KT 06/M05 A3034 RMK A01 T00581053  RH  045%=      5-min Rain = 0
KAM3 131524Z 12009KT 06/M05 A3034 RMK A01 T00581053  RH  045%=      5-min Rain = 0
KAM3 131525Z 12008KT 06/M05 A3034 RMK A01 T00581053  RH  045%=      5-min Rain = 0
KAM3 131526Z 11009KT 06/M05 A3034 RMK A01 T00581054  RH  045%=      5-min Rain = 0
KAM3 131527Z 11007KT 06/M05 A3034 RMK A01 T00581053  RH  045%=      5-min Rain = 0
KAM3 131528Z 12007KT 06/M05 A3034 RMK A01 T00581053  RH  045%=      5-min Rain = 0
KAM3 131529Z 12008KT 06/M05 A3034 RMK A01 T00581053  RH  044%=      5-min Rain = 0
KAM3 131530Z 12008KT 06/M05 A3034 RMK A01 T00591054  RH  044%=      5-min Rain = 0
KAM3 131531Z 11007KT 06/M05 A3034 RMK A01 T00581053  RH  045%=      5-min Rain = 0
KAM3 131532Z 10008KT 06/M05 A3034 RMK A01 T00591053  RH  044%=      5-min Rain = 0
KAM3 131533Z 10009KT 06/M05 A3034 RMK A01 T00591054  RH  044%=      5-min Rain = 0
KAM3 131534Z 10008KT 06/M05 A3034 RMK A01 T00601054  RH  044%=      5-min Rain = 0
KAM3 131535Z 10007KT 06/M05 A3034 RMK A01 T00601054  RH  044%=      5-min Rain = 0
KAM3 131536Z 09008KT 06/M05 A3034 RMK A01 T00611053  RH  044%=      5-min Rain = 0
KAM3 131537Z 10010KT 06/M05 A3034 RMK A01 T00621054  RH  043%=      5-min Rain = 0
KAM3 131538Z 10009KT 06/M05 A3034 RMK A01 T00621054  RH  043%=      5-min Rain = 0
KAM3 131539Z 10009KT 06/M06 A3034 RMK A01 T00611055  RH  043%=      5-min Rain = 0
KAM3 131540Z 10010KT 06/M05 A3034 RMK A01 T00611054  RH  043%=      5-min Rain = 0
KAM3 131541Z 12008KT 06/M05 A3034 RMK A01 T00611054  RH  043%=      5-min Rain = 0
KAM3 131542Z 12008KT 06/M05 A3034 RMK A01 T00621054  RH  043%=      5-min Rain = 0
KAM3 131543Z 11009KT 06/M05 A3034 RMK A01 T00641053  RH  043%=      5-min Rain = 0
KAM3 131544Z 11010KT 07/M05 A3034 RMK A01 T00651053  RH  043%=      5-min Rain = 0
KAM3 131545Z 11009KT 07/M05 A3034 RMK A01 T00651054  RH  042%=      5-min Rain = 0
KAM3 131546Z 11008KT 07/M05 A3034 RMK A01 T00651053  RH  042%=      5-min Rain = 0
KAM3 131547Z 12008KT 07/M05 A3034 RMK A01 T00671052  RH  042%=      5-min Rain = 0
KAM3 131548Z 12008KT 07/M05 A3034 RMK A01 T00681053  RH  042%=      5-min Rain = 0
KAM3 131549Z 12007KT 07/M05 A3034 RMK A01 T00691053  RH  042%=      5-min Rain = 0
KAM3 131550Z 10008KT 07/M05 A3034 RMK A01 T00691053  RH  042%=      5-min Rain = 0
KAM3 131551Z 11007KT 07/M05 A3034 RMK A01 T00691052  RH  042%=      5-min Rain = 0
KAM3 131552Z 10009KT 07/M05 A3035 RMK A01 T00711052  RH  041%=      5-min Rain = 0
KAM3 131553Z 11009KT 07/M05 A3035 RMK A01 T00731052  RH  041%=      5-min Rain = 0
KAM3 131554Z 11007KT 08/M05 A3035 RMK A01 T00751051  RH  040%=      5-min Rain = 0
KAM3 131555Z 12009KT 08/M05 A3035 RMK A01 T00771051  RH  040%=      5-min Rain = 0
KAM3 131556Z 11007KT 08/M05 A3035 RMK A01 T00771052  RH  039%=      5-min Rain = 0
KAM3 131557Z 10009KT 08/M05 A3035 RMK A01 T00771051  RH  040%=      5-min Rain = 0
KAM3 131558Z 10010KT 08/M05 A3035 RMK A01 T00781051  RH  039%=      5-min Rain = 0
KAM3 131559Z 11010KT 08/M05 A3035 RMK A01 T00791052  RH  039%=      5-min Rain = 0
KAM3 131600Z 10007KT 08/M05 A3035 RMK A01 T00781053  RH  039%=      5-min Rain = 0
KAM3 131601Z 10006KT 08/M05 A3035 RMK A01 T00781052  RH  039%=      5-min Rain = 0
KAM3 131602Z 11008KT 08/M05 A3035 RMK A01 T00781052  RH  039%=      5-min Rain = 0
KAM3 131603Z 10009KT 08/M05 A3035 RMK A01 T00791052  RH  039%=      5-min Rain = 0
KAM3 131604Z 10009KT 08/M05 A3035 RMK A01 T00781053  RH  039%=      5-min Rain = 0
KAM3 131605Z 11010KT 08/M05 A3035 RMK A01 T00791053  RH  039%=      5-min Rain = 0
KAM3 131606Z 10009KT 08/M05 A3035 RMK A01 T00781053  RH  039%=      5-min Rain = 0
KAM3 131607Z 10009KT 08/M05 A3035 RMK A01 T00761053  RH  039%=      5-min Rain = 0
KAM3 131608Z 12007KT 08/M05 A3035 RMK A01 T00761054  RH  039%=      5-min Rain = 0
KAM3 131609Z 11008KT 08/M05 A3035 RMK A01 T00761053  RH  040%=      5-min Rain = 0
KAM3 131610Z 12007KT 08/M05 A3035 RMK A01 T00771053  RH  039%=      5-min Rain = 0
KAM3 131611Z 10008KT 08/M05 A3035 RMK A01 T00781052  RH  039%=      5-min Rain = 0
KAM3 131612Z 10008KT 08/M05 A3035 RMK A01 T00811051  RH  039%=      5-min Rain = 0
KAM3 131613Z 10009KT 08/M05 A3035 RMK A01 T00831050  RH  038%=      5-min Rain = 0
KAM3 131614Z 10010KT 08/M05 A3035 RMK A01 T00841052  RH  038%=      5-min Rain = 0
KAM3 131615Z 10011KT 08/M05 A3035 RMK A01 T00811053  RH  038%=      5-min Rain = 0
KAM3 131616Z 11009KT 08/M05 A3035 RMK A01 T00801053  RH  038%=      5-min Rain = 0
KAM3 131617Z 11010KT 08/M05 A3035 RMK A01 T00791053  RH  039%=      5-min Rain = 0
KAM3 131618Z 10010KT 08/M05 A3035 RMK A01 T00791053  RH  039%=      5-min Rain = 0
KAM3 131619Z 10010KT 08/M05 A3035 RMK A01 T00791052  RH  039%=      5-min Rain = 0
KAM3 131620Z 11008KT 08/M05 A3035 RMK A01 T00791053  RH  039%=      5-min Rain = 0
KAM3 131621Z 12007KT 08/M05 A3035 RMK A01 T00791053  RH  039%=      5-min Rain = 0
KAM3 131622Z 13007KT 08/M05 A3035 RMK A01 T00791052  RH  039%=      5-min Rain = 0
KAM3 131623Z 12006KT 08/M05 A3035 RMK A01 T00791053  RH  039%=      5-min Rain = 0
KAM3 131624Z 10007KT 08/M05 A3035 RMK A01 T00801051  RH  039%=      5-min Rain = 0
KAM3 131625Z 11009KT 08/M05 A3035 RMK A01 T00831050  RH  038%=      5-min Rain = 0
KAM3 131626Z 12007KT 08/M05 A3035 RMK A01 T00841051  RH  038%=      5-min Rain = 0
KAM3 131627Z 13007KT 08/M05 A3035 RMK A01 T00841051  RH  038%=      5-min Rain = 0
KAM3 131628Z 14005G11KT 08/M05 A3035 RMK A01 T00841051  RH  038%=      5-min Rain = 0
KAM3 131629Z 09009KT 09/M05 A3035 RMK A01 T00861049  RH  038%=      5-min Rain = 0
KAM3 131630Z 09010KT 09/M05 A3035 RMK A01 T00901048  RH  037%=      5-min Rain = 0
KAM3 131631Z 10009KT 09/M05 A3035 RMK A01 T00901049  RH  037%=      5-min Rain = 0
KAM3 131632Z 11010KT 09/M05 A3035 RMK A01 T00921048  RH  037%=      5-min Rain = 0
KAM3 131633Z 12010KT 09/M05 A3035 RMK A01 T00921049  RH  037%=      5-min Rain = 0
KAM3 131634Z 12009KT 09/M05 A3035 RMK A01 T00911049  RH  037%=      5-min Rain = 0
KAM3 131635Z 11007KT 09/M05 A3035 RMK A01 T00901050  RH  037%=      5-min Rain = 0
KAM3 131636Z 13007KT 09/M05 A3035 RMK A01 T00901049  RH  037%=      5-min Rain = 0
KAM3 131637Z 11011KT 09/M05 A3035 RMK A01 T00921048  RH  037%=      5-min Rain = 0
KAM3 131638Z 12010KT 09/M05 A3035 RMK A01 T00941049  RH  036%=      5-min Rain = 0
KAM3 131639Z 12010KT 10/M05 A3035 RMK A01 T00951048  RH  036%=      5-min Rain = 0
KAM3 131640Z 12010KT 10/M05 A3035 RMK A01 T00961048  RH  036%=      5-min Rain = 0
KAM3 131641Z 13008KT 10/M05 A3035 RMK A01 T00951049  RH  036%=      5-min Rain = 0
KAM3 131642Z 12008KT 09/M05 A3035 RMK A01 T00941049  RH  036%=      5-min Rain = 0
KAM3 131643Z 12007KT 10/M05 A3035 RMK A01 T00951049  RH  036%=      5-min Rain = 0
KAM3 131644Z 09008KT 10/M05 A3035 RMK A01 T00971047  RH  036%=      5-min Rain = 0
KAM3 131645Z 10008KT 10/M05 A3035 RMK A01 T01031045  RH  035%=      5-min Rain = 0
KAM3 131646Z 12011KT 10/M05 A3035 RMK A01 T01031049  RH  034%=      5-min Rain = 0
KAM3 131647Z 11008KT 10/M05 A3035 RMK A01 T01011048  RH  035%=      5-min Rain = 0
KAM3 131648Z 10009KT 10/M05 A3035 RMK A01 T01041046  RH  035%=      5-min Rain = 0
KAM3 131649Z 09011KT 11/M05 A3035 RMK A01 T01071047  RH  033%=      5-min Rain = 0
KAM3 131650Z 09012KT 10/M05 A3035 RMK A01 T01041051  RH  033%=      5-min Rain = 0
KAM3 131651Z 09008KT 10/M05 A3035 RMK A01 T01001052  RH  034%=      5-min Rain = 0
KAM3 131652Z 10007KT 10/M05 A3035 RMK A01 T00951052  RH  035%=      5-min Rain = 0
KAM3 131653Z 10008KT 09/M05 A3035 RMK A01 T00941051  RH  036%=      5-min Rain = 0
KAM3 131654Z 10010KT 10/M05 A3035 RMK A01 T00961049  RH  036%=      5-min Rain = 0
KAM3 131655Z 11008KT 10/M05 A3035 RMK A01 T00981049  RH  035%=      5-min Rain = 0
KAM3 131656Z 12009KT 10/M05 A3035 RMK A01 T00991050  RH  035%=      5-min Rain = 0
KAM3 131657Z 11009KT 10/M05 A3035 RMK A01 T00971051  RH  035%=      5-min Rain = 0
KAM3 131658Z 11011KT 10/M05 A3035 RMK A01 T00991049  RH  035%=      5-min Rain = 0
KAM3 131659Z 10010KT 10/M05 A3035 RMK A01 T01001050  RH  034%=      5-min Rain = 0
KAM3 131700Z 12010KT 10/M05 A3035 RMK A01 T00981051  RH  035%=      5-min Rain = 0
KAM3 131701Z 13007KT 10/M05 A3035 RMK A01 T00971050  RH  035%=      5-min Rain = 0
KAM3 131702Z 12007KT 10/M05 A3035 RMK A01 T00961050  RH  035%=      5-min Rain = 0
KAM3 131703Z 11006KT 10/M05 A3035 RMK A01 T00981048  RH  035%=      5-min Rain = 0
KAM3 131704Z 11007KT 10/M05 A3035 RMK A01 T01011049  RH  034%=      5-min Rain = 0
KAM3 131705Z 11009KT 10/M05 A3035 RMK A01 T01001051  RH  034%=      5-min Rain = 0
KAM3 131706Z 12008KT 10/M05 A3035 RMK A01 T01001050  RH  034%=      5-min Rain = 0
KAM3 131707Z 15005KT 10/M05 A3035 RMK A01 T01031048  RH  034%=      5-min Rain = 0
KAM3 131708Z 12005KT 10/M05 A3035 RMK A01 T01031048  RH  034%=      5-min Rain = 0
KAM3 131709Z 12009KT 10/M05 A3035 RMK A01 T01041047  RH  034%=      5-min Rain = 0
KAM3 131710Z 13008KT 10/M05 A3035 RMK A01 T01041049  RH  034%=      5-min Rain = 0
KAM3 131711Z 10005KT 10/M05 A3035 RMK A01 T01011050  RH  034%=      5-min Rain = 0
KAM3 131712Z 10006G11KT 10/M05 A3035 RMK A01 T01001049  RH  035%=      5-min Rain = 0
KAM3 131713Z 09009KT 10/M05 A3035 RMK A01 T01001048  RH  035%=      5-min Rain = 0
KAM3 131714Z 12006KT 10/M05 A3035 RMK A01 T01021048  RH  034%=      5-min Rain = 0
KAM3 131715Z 14006KT 10/M05 A3035 RMK A01 T01041048  RH  034%=      5-min Rain = 0
KAM3 131716Z 12003KT 10/M05 A3035 RMK A01 T01041048  RH  034%=      5-min Rain = 0
KAM3 131717Z 14003KT 10/M05 A3035 RMK A01 T01041047  RH  034%=      5-min Rain = 0
KAM3 131718Z 15010KT 11/M05 A3035 RMK A01 T01071046  RH  034%=      5-min Rain = 0
KAM3 131719Z 16008KT 11/M05 A3035 RMK A01 T01081046  RH  033%=      5-min Rain = 0
KAM3 131720Z 15010KT 11/M05 A3035 RMK A01 T01071046  RH  034%=      5-min Rain = 0
KAM3 131721Z 16010KT 11/M05 A3035 RMK A01 T01081047  RH  033%=      5-min Rain = 0
KAM3 131722Z 15008KT 11/M05 A3035 RMK A01 T01071047  RH  033%=      5-min Rain = 0
KAM3 131723Z 14008KT 11/M05 A3035 RMK A01 T01071047  RH  034%=      5-min Rain = 0
KAM3 131724Z 15008KT 11/M05 A3035 RMK A01 T01051048  RH  034%=      5-min Rain = 0
KAM3 131725Z 14007KT 10/M05 A3035 RMK A01 T01041048  RH  034%=      5-min Rain = 0
KAM3 131726Z 15005KT 10/M05 A3035 RMK A01 T01031048  RH  034%=      5-min Rain = 0
KAM3 131727Z 13007KT 10/M05 A3035 RMK A01 T01021048  RH  034%=      5-min Rain = 0
KAM3 131728Z 12010KT 10/M05 A3035 RMK A01 T01021048  RH  035%=      5-min Rain = 0
KAM3 131729Z 12008KT 10/M05 A3035 RMK A01 T01021048  RH  035%=      5-min Rain = 0
KAM3 131730Z 12008KT 10/M05 A3035 RMK A01 T01031048  RH  034%=      5-min Rain = 0
KAM3 131731Z 13007KT 10/M05 A3034 RMK A01 T01031048  RH  034%=      5-min Rain = 0
KAM3 131732Z 13006KT 10/M05 A3034 RMK A01 T01021048  RH  035%=      5-min Rain = 0
KAM3 131733Z 12006KT 10/M05 A3034 RMK A01 T01021047  RH  035%=      5-min Rain = 0
KAM3 131734Z 14007KT 10/M05 A3034 RMK A01 T01041046  RH  034%=      5-min Rain = 0
KAM3 131735Z 15005KT 11/M05 A3034 RMK A01 T01071046  RH  034%=      5-min Rain = 0
KAM3 131736Z 13010KT 11/M05 A3034 RMK A01 T01091046  RH  033%=      5-min Rain = 0
KAM3 131737Z 13008KT 11/M05 A3034 RMK A01 T01071048  RH  033%=      5-min Rain = 0
KAM3 131738Z 12009KT 11/M05 A3034 RMK A01 T01051048  RH  034%=      5-min Rain = 0
KAM3 131739Z 13006KT 10/M05 A3034 RMK A01 T01031049  RH  034%=      5-min Rain = 0
KAM3 131740Z 12010KT 10/M05 A3034 RMK A01 T01021048  RH  034%=      5-min Rain = 0
KAM3 131741Z 13009KT 10/M05 A3034 RMK A01 T01031047  RH  034%=      5-min Rain = 0
KAM3 131742Z 15008KT 11/M05 A3034 RMK A01 T01051047  RH  034%=      5-min Rain = 0
KAM3 131743Z 18008KT 11/M05 A3034 RMK A01 T01071047  RH  034%=      5-min Rain = 0
KAM3 131744Z 17008KT 11/M05 A3034 RMK A01 T01071047  RH  033%=      5-min Rain = 0
KAM3 131745Z 14009KT 11/M05 A3034 RMK A01 T01071048  RH  033%=      5-min Rain = 0
KAM3 131746Z 13008KT 11/M05 A3034 RMK A01 T01071048  RH  033%=      5-min Rain = 0
KAM3 131747Z 16008KT 11/M05 A3034 RMK A01 T01061048  RH  034%=      5-min Rain = 0
KAM3 131748Z 14008KT 11/M05 A3034 RMK A01 T01051047  RH  034%=      5-min Rain = 0
KAM3 131749Z 14008KT 11/M05 A3034 RMK A01 T01051047  RH  034%=      5-min Rain = 0
KAM3 131750Z 13006KT 11/M05 A3034 RMK A01 T01061047  RH  034%=      5-min Rain = 0
KAM3 131751Z 11006KT 11/M05 A3034 RMK A01 T01081046  RH  033%=      5-min Rain = 0
KAM3 131752Z 13005KT 11/M05 A3034 RMK A01 T01101047  RH  033%=      5-min Rain = 0
KAM3 131753Z 14003KT 11/M05 A3034 RMK A01 T01101047  RH  033%=      5-min Rain = 0
KAM3 131754Z 15007KT 11/M05 A3034 RMK A01 T01091047  RH  033%=      5-min Rain = 0
KAM3 131755Z 14009KT 11/M05 A3034 RMK A01 T01111046  RH  033%=      5-min Rain = 0
KAM3 131756Z 13008KT 12/M05 A3034 RMK A01 T01151048  RH  032%=      5-min Rain = 0
KAM3 131757Z 13006KT 11/M05 A3034 RMK A01 T01141048  RH  032%=      5-min Rain = 0
KAM3 131758Z 16007KT 12/M05 A3034 RMK A01 T01161047  RH  032%=      5-min Rain = 0
KAM3 131759Z 17008KT 12/M05 A3034 RMK A01 T01161050  RH  031%=      5-min Rain = 0
KAM3 131800Z 15007KT 11/M05 A3034 RMK A01 T01141049  RH  032%=      5-min Rain = 0
KAM3 131801Z 16007KT 11/M05 A3034 RMK A01 T01131049  RH  032%=      5-min Rain = 0
KAM3 131802Z 16011KT 11/M05 A3034 RMK A01 T01121048  RH  032%=      5-min Rain = 0
KAM3 131803Z 17010KT 12/M05 A3034 RMK A01 T01151050  RH  031%=      5-min Rain = 0
KAM3 131804Z 16008KT 12/M05 A3034 RMK A01 T01151050  RH  031%=      5-min Rain = 0
KAM3 131805Z 16007KT 12/M05 A3034 RMK A01 T01161049  RH  031%=      5-min Rain = 0
KAM3 131806Z 15004KT 12/M05 A3033 RMK A01 T01161049  RH  031%=      5-min Rain = 0
KAM3 131807Z 14009KT 12/M05 A3033 RMK A01 T01161049  RH  031%=      5-min Rain = 0
KAM3 131808Z 11007KT 12/M05 A3033 RMK A01 T01171049  RH  031%=      5-min Rain = 0
KAM3 131809Z 12005KT 12/M05 A3033 RMK A01 T01161049  RH  031%=      5-min Rain = 0
KAM3 131810Z 12007KT 12/M05 A3033 RMK A01 T01151048  RH  032%=      5-min Rain = 0
KAM3 131811Z 11006KT 12/M05 A3033 RMK A01 T01161049  RH  031%=      5-min Rain = 0
KAM3 131812Z 13007KT 12/M05 A3033 RMK A01 T01161049  RH  031%=      5-min Rain = 0
KAM3 131813Z 12008KT 12/M05 A3033 RMK A01 T01161048  RH  031%=      5-min Rain = 0
KAM3 131814Z 11007KT 12/M05 A3033 RMK A01 T01161048  RH  031%=      5-min Rain = 0
KAM3 131815Z 11008KT 12/M05 A3033 RMK A01 T01161050  RH  031%=      5-min Rain = 0
KAM3 131816Z 14006G11KT 11/M05 A3033 RMK A01 T01141050  RH  031%=      5-min Rain = 0
KAM3 131817Z 14010KT 12/M05 A3033 RMK A01 T01181045  RH  032%=      5-min Rain = 0
KAM3 131818Z 12009KT 12/M05 A3033 RMK A01 T01231045  RH  031%=      5-min Rain = 0
KAM3 131819Z 13009KT 12/M05 A3033 RMK A01 T01241048  RH  030%=      5-min Rain = 0
KAM3 131820Z 12009KT 12/M05 A3033 RMK A01 T01201049  RH  030%=      5-min Rain = 0
KAM3 131821Z 11008KT 12/M05 A3033 RMK A01 T01171050  RH  031%=      5-min Rain = 0
KAM3 131822Z 11004KT 12/M05 A3033 RMK A01 T01151051  RH  031%=      5-min Rain = 0
KAM3 131823Z 10005KT 12/M05 A3033 RMK A01 T01161048  RH  031%=      5-min Rain = 0
KAM3 131824Z 11008KT 12/M05 A3033 RMK A01 T01201048  RH  031%=      5-min Rain = 0
KAM3 131825Z 13009KT 12/M05 A3033 RMK A01 T01201048  RH  030%=      5-min Rain = 0
KAM3 131826Z 15007KT 12/M05 A3033 RMK A01 T01221048  RH  030%=      5-min Rain = 0
KAM3 131827Z 13007KT 12/M05 A3033 RMK A01 T01211049  RH  030%=      5-min Rain = 0
KAM3 131828Z 11003KT 12/M05 A3033 RMK A01 T01191049  RH  030%=      5-min Rain = 0
KAM3 131829Z 09003KT 12/M05 A3033 RMK A01 T01161050  RH  031%=      5-min Rain = 0
KAM3 131830Z 12008KT 12/M05 A3033 RMK A01 T01151050  RH  031%=      5-min Rain = 0
KAM3 131831Z 12008KT 12/M05 A3033 RMK A01 T01161049  RH  031%=      5-min Rain = 0
KAM3 131832Z 13006KT 12/M05 A3033 RMK A01 T01161050  RH  031%=      5-min Rain = 0
KAM3 131833Z 14004KT 12/M05 A3033 RMK A01 T01151049  RH  031%=      5-min Rain = 0
KAM3 131834Z 14004KT 12/M05 A3033 RMK A01 T01151049  RH  031%=      5-min Rain = 0
KAM3 131835Z 14007KT 12/M05 A3033 RMK A01 T01181047  RH  031%=      5-min Rain = 0
KAM3 131836Z 15009KT 12/M05 A3033 RMK A01 T01201046  RH  031%=      5-min Rain = 0
KAM3 131837Z 15006KT 12/M05 A3033 RMK A01 T01201048  RH  031%=      5-min Rain = 0
KAM3 131838Z 17005KT 12/M05 A3033 RMK A01 T01211046  RH  031%=      5-min Rain = 0
KAM3 131839Z 17006KT 12/M05 A3033 RMK A01 T01221046  RH  031%=      5-min Rain = 0
KAM3 131840Z 15009KT 13/M05 A3033 RMK A01 T01251045  RH  030%=      5-min Rain = 0
KAM3 131841Z 16010KT 13/M05 A3033 RMK A01 T01281047  RH  029%=      5-min Rain = 0
KAM3 131842Z 18008KT 13/M05 A3033 RMK A01 T01291046  RH  029%=      5-min Rain = 0
KAM3 131843Z 19010KT 13/M05 A3033 RMK A01 T01311046  RH  029%=      5-min Rain = 0
KAM3 131844Z 17010KT 13/M05 A3033 RMK A01 T01311046  RH  029%=      5-min Rain = 0
KAM3 131845Z 18008KT 13/M05 A3033 RMK A01 T01331046  RH  028%=      5-min Rain = 0
KAM3 131846Z 16009KT 13/M05 A3033 RMK A01 T01331048  RH  028%=      5-min Rain = 0
KAM3 131847Z 16007KT 13/M05 A3033 RMK A01 T01331048  RH  028%=      5-min Rain = 0
KAM3 131848Z 14009KT 13/M05 A3033 RMK A01 T01311047  RH  029%=      5-min Rain = 0
KAM3 131849Z 15008KT 13/M05 A3033 RMK A01 T01301048  RH  029%=      5-min Rain = 0
KAM3 131850Z 17006KT 13/M05 A3033 RMK A01 T01301047  RH  029%=      5-min Rain = 0
KAM3 131851Z 17005KT 13/M05 A3033 RMK A01 T01301047  RH  029%=      5-min Rain = 0
KAM3 131852Z 18004KT 13/M05 A3032 RMK A01 T01311047  RH  029%=      5-min Rain = 0
KAM3 131853Z 14005KT 13/M05 A3033 RMK A01 T01321047  RH  028%=      5-min Rain = 0
KAM3 131854Z 19006KT 13/M05 A3033 RMK A01 T01331048  RH  028%=      5-min Rain = 0
KAM3 131855Z 19005KT 13/M05 A3032 RMK A01 T01321051  RH  028%=      5-min Rain = 0
KAM3 131856Z 18006KT 13/M05 A3032 RMK A01 T01321049  RH  028%=      5-min Rain = 0
KAM3 131857Z 19004KT 13/M05 A3032 RMK A01 T01341051  RH  027%=      5-min Rain = 0
KAM3 131858Z 13004KT 13/M05 A3032 RMK A01 T01341051  RH  027%=      5-min Rain = 0
KAM3 131859Z 16005KT 13/M05 A3032 RMK A01 T01341049  RH  028%=      5-min Rain = 0
KAM3 131900Z 13005KT 13/M05 A3032 RMK A01 T01341048  RH  028%=      5-min Rain = 0
KAM3 131901Z 11004KT 13/M05 A3032 RMK A01 T01311048  RH  028%=      5-min Rain = 0
KAM3 131902Z 13003KT 13/M05 A3032 RMK A01 T01291048  RH  029%=      5-min Rain = 0
KAM3 131903Z 15004KT 13/M05 A3032 RMK A01 T01311045  RH  029%=      5-min Rain = 0
KAM3 131904Z 18007KT 14/M04 A3032 RMK A01 T01371044  RH  028%=      5-min Rain = 0
KAM3 131905Z 19008KT 14/M05 A3032 RMK A01 T01401046  RH  027%=      5-min Rain = 0
KAM3 131906Z 18007KT 14/M05 A3032 RMK A01 T01371048  RH  027%=      5-min Rain = 0
KAM3 131907Z 18006KT 14/M05 A3032 RMK A01 T01361046  RH  028%=      5-min Rain = 0
KAM3 131908Z 13005KT 14/M05 A3032 RMK A01 T01391046  RH  027%=      5-min Rain = 0
KAM3 131909Z 13006KT 14/M05 A3032 RMK A01 T01421046  RH  027%=      5-min Rain = 0
KAM3 131910Z 11005KT 14/M05 A3032 RMK A01 T01401047  RH  027%=      5-min Rain = 0
KAM3 131911Z 13009KT 14/M05 A3032 RMK A01 T01391047  RH  027%=      5-min Rain = 0
KAM3 131912Z 12009KT 14/M05 A3032 RMK A01 T01401047  RH  027%=      5-min Rain = 0
KAM3 131913Z 12007KT 14/M05 A3032 RMK A01 T01401048  RH  027%=      5-min Rain = 0
KAM3 131914Z 14007KT 14/M05 A3031 RMK A01 T01381048  RH  027%=      5-min Rain = 0
KAM3 131915Z 16008KT 14/M05 A3031 RMK A01 T01391047  RH  027%=      5-min Rain = 0
KAM3 131916Z 15005KT 14/M05 A3031 RMK A01 T01401048  RH  027%=      5-min Rain = 0
KAM3 131917Z 02002KT 14/M05 A3031 RMK A01 T01381048  RH  027%=      5-min Rain = 0
KAM3 131918Z 16003KT 14/M05 A3031 RMK A01 T01371047  RH  027%=      5-min Rain = 0
KAM3 131919Z 18006KT 14/M05 A3031 RMK A01 T01391047  RH  027%=      5-min Rain = 0
KAM3 131920Z 21007KT 14/M05 A3031 RMK A01 T01421046  RH  027%=      5-min Rain = 0
KAM3 131921Z 19004KT 14/M05 A3031 RMK A01 T01411048  RH  027%=      5-min Rain = 0
KAM3 131922Z 21002KT 14/M05 A3031 RMK A01 T01381050  RH  027%=      5-min Rain = 0
KAM3 131923Z 17003G8KT 14/M05 A3031 RMK A01 T01361048  RH  027%=      5-min Rain = 0
KAM3 131924Z 15010KT 14/M05 A3031 RMK A01 T01391047  RH  027%=      5-min Rain = 0
KAM3 131925Z 15010KT 14/M05 A303 RMK A01 T01411049  RH  026%=      5-min Rain = 0
KAM3 131926Z 14009KT 14/M05 A3031 RMK A01 T01421049  RH  026%=      5-min Rain = 0
KAM3 131927Z 13007KT 14/M05 A3031 RMK A01 T01411051  RH  026%=      5-min Rain = 0
KAM3 131928Z 11004G11KT 14/M05 A303 RMK A01 T01401049  RH  027%=      5-min Rain = 0
KAM3 131929Z 13008KT 14/M05 A303 RMK A01 T01401050  RH  026%=      5-min Rain = 0
KAM3 131930Z 12005KT 14/M05 A303 RMK A01 T01401050  RH  027%=      5-min Rain = 0
KAM3 131931Z 12005KT 14/M05 A303 RMK A01 T01391049  RH  027%=      5-min Rain = 0
KAM3 131932Z 12004KT 14/M05 A303 RMK A01 T01411047  RH  027%=      5-min Rain = 0
KAM3 131933Z 12006KT 14/M05 A303 RMK A01 T01441046  RH  027%=      5-min Rain = 0
KAM3 131934Z 12006KT 15/M05 A303 RMK A01 T01471046  RH  026%=      5-min Rain = 0
KAM3 131935Z 13005KT 15/M05 A303 RMK A01 T01491046  RH  026%=      5-min Rain = 0
KAM3 131936Z 11006KT 15/M04 A303 RMK A01 T01501044  RH  026%=      5-min Rain = 0
KAM3 131937Z 09005KT 15/M05 A303 RMK A01 T01521046  RH  025%=      5-min Rain = 0
KAM3 131938Z 11003KT 15/M05 A303 RMK A01 T01491048  RH  025%=      5-min Rain = 0
KAM3 131939Z 13003KT 15/M05 A303 RMK A01 T01471047  RH  026%=      5-min Rain = 0
KAM3 131940Z 18004KT 15/M05 A303 RMK A01 T01471047  RH  026%=      5-min Rain = 0
KAM3 131941Z 18007KT 15/M05 A303 RMK A01 T01461048  RH  026%=      5-min Rain = 0
KAM3 131942Z 19008KT 15/M05 A303 RMK A01 T01471048  RH  026%=      5-min Rain = 0
KAM3 131943Z 21007G12KT 15/M05 A3029 RMK A01 T01471048  RH  026%=      5-min Rain = 0
KAM3 131944Z 18007KT 15/M05 A303 RMK A01 T01471047  RH  026%=      5-min Rain = 0
KAM3 131945Z 17010KT 15/M05 A3029 RMK A01 T01511046  RH  025%=      5-min Rain = 0
KAM3 131946Z 18010KT 15/M05 A3029 RMK A01 T01541047  RH  025%=      5-min Rain = 0
KAM3 131947Z 18009G14KT 15/M05 A3029 RMK A01 T01541047  RH  025%=      5-min Rain = 0
KAM3 131948Z 18010KT 16/M05 A3029 RMK A01 T01551046  RH  025%=      5-min Rain = 0
KAM3 131949Z 19012KT 15/M05 A3029 RMK A01 T01531047  RH  025%=      5-min Rain = 0
KAM3 131950Z 17012KT 15/M05 A3029 RMK A01 T01531047  RH  025%=      5-min Rain = 0
KAM3 131951Z 17011KT 15/M05 A3029 RMK A01 T01521049  RH  025%=      5-min Rain = 0
KAM3 131952Z 17008KT 15/M05 A3029 RMK A01 T01501047  RH  025%=      5-min Rain = 0
KAM3 131953Z 19006KT 15/M05 A3029 RMK A01 T01491048  RH  025%=      5-min Rain = 0
KAM3 131954Z 20007KT 15/M05 A3029 RMK A01 T01471050  RH  025%=      5-min Rain = 0
KAM3 131955Z 21006KT 14/M05 A3029 RMK A01 T01431052  RH  026%=      5-min Rain = 0
KAM3 131956Z 22003KT 14/M05 A3029 RMK A01 T01411051  RH  026%=      5-min Rain = 0
KAM3 131957Z 30001KT 14/M05 A3029 RMK A01 T01401052  RH  026%=      5-min Rain = 0
KAM3 131958Z 30003KT 14/M05 A3029 RMK A01 T01391050  RH  026%=      5-min Rain = 0
KAM3 131959Z 25003KT 14/M05 A3029 RMK A01 T01431048  RH  026%=      5-min Rain = 0
KAM3 132000Z 14007G13KT 15/M05 A3029 RMK A01 T01461049  RH  026%=      5-min Rain = 0
KAM3 132001Z 12008KT 15/M05 A3029 RMK A01 T01501047  RH  025%=      5-min Rain = 0
KAM3 132002Z 08007KT 15/M05 A3029 RMK A01 T01501049  RH  025%=      5-min Rain = 0
KAM3 132003Z 08006KT 15/M05 A3029 RMK A01 T01471050  RH  025%=      5-min Rain = 0
KAM3 132004Z 10005KT 15/M05 A3029 RMK A01 T01451050  RH  026%=      5-min Rain = 0
KAM3 132005Z 09005KT 14/M05 A3029 RMK A01 T01431051  RH  026%=      5-min Rain = 0
KAM3 132006Z 11005KT 14/M05 A3029 RMK A01 T01401052  RH  026%=      5-min Rain = 0
KAM3 132007Z 13003KT 14/M05 A3028 RMK A01 T01381052  RH  026%=      5-min Rain = 0
KAM3 132008Z 12006KT 14/M05 A3028 RMK A01 T01361051  RH  027%=      5-min Rain = 0
KAM3 132009Z 10006KT 14/M05 A3028 RMK A01 T01361051  RH  027%=      5-min Rain = 0
KAM3 132010Z 12004KT 14/M05 A3028 RMK A01 T01351051  RH  027%=      5-min Rain = 0
KAM3 132011Z 11004KT 14/M05 A3028 RMK A01 T01361050  RH  027%=      5-min Rain = 0
KAM3 132012Z 13004KT 14/M05 A3028 RMK A01 T01381051  RH  027%=      5-min Rain = 0
KAM3 132013Z 14006KT 14/M05 A3028 RMK A01 T01391050  RH  027%=      5-min Rain = 0
KAM3 132014Z 16005KT 14/M05 A3028 RMK A01 T01411050  RH  026%=      5-min Rain = 0
KAM3 132015Z 15005KT 14/M05 A3028 RMK A01 T01411050  RH  026%=      5-min Rain = 0
KAM3 132016Z 16003KT 14/M05 A3028 RMK A01 T01421050  RH  026%=      5-min Rain = 0
KAM3 132017Z 16010KT 15/M05 A3028 RMK A01 T01451048  RH  026%=      5-min Rain = 0
KAM3 132018Z 17008KT 15/M05 A3028 RMK A01 T01491047  RH  025%=      5-min Rain = 0
KAM3 132019Z 18005KT 15/M05 A3028 RMK A01 T01511048  RH  025%=      5-min Rain = 0
KAM3 132020Z 19004KT 15/M05 A3028 RMK A01 T01511048  RH  025%=      5-min Rain = 0
KAM3 132021Z 18005KT 15/M05 A3028 RMK A01 T01491049  RH  025%=      5-min Rain = 0
KAM3 132022Z 17005KT 15/M05 A3028 RMK A01 T01521046  RH  025%=      5-min Rain = 0
KAM3 132023Z 19004KT 16/M05 A3028 RMK A01 T01551047  RH  024%=      5-min Rain = 0
KAM3 132024Z 15009KT 16/M05 A3028 RMK A01 T01561048  RH  024%=      5-min Rain = 0
KAM3 132025Z 17008KT 15/M05 A3028 RMK A01 T01541049  RH  024%=      5-min Rain = 0
KAM3 132026Z 17005KT 15/M05 A3028 RMK A01 T01491052  RH  024%=      5-min Rain = 0
KAM3 132027Z 20003KT 14/M05 A3028 RMK A01 T01441052  RH  025%=      5-min Rain = 0
KAM3 132028Z 20003KT 14/M05 A3028 RMK A01 T01421051  RH  026%=      5-min Rain = 0
KAM3 132029Z 17003KT 14/M05 A3028 RMK A01 T01441050  RH  026%=      5-min Rain = 0
KAM3 132030Z 18002KT 14/M05 A3028 RMK A01 T01441051  RH  025%=      5-min Rain = 0
KAM3 132031Z 22001KT 15/M05 A3028 RMK A01 T01451049  RH  026%=      5-min Rain = 0
KAM3 132032Z 23000KT 15/M05 A3028 RMK A01 T01471049  RH  025%=      5-min Rain = 0
KAM3 132033Z 10002KT 15/M05 A3028 RMK A01 T01501047  RH  025%=      5-min Rain = 0
KAM3 132034Z 13002KT 15/M05 A3028 RMK A01 T01531049  RH  024%=      5-min Rain = 0
KAM3 132035Z 14008KT 15/M05 A3028 RMK A01 T01541049  RH  024%=      5-min Rain = 0
KAM3 132036Z 13009KT 16/M05 A3028 RMK A01 T01561048  RH  024%=      5-min Rain = 0
KAM3 132037Z 10005KT 16/M05 A3028 RMK A01 T01551050  RH  024%=      5-min Rain = 0
KAM3 132038Z 12001KT 15/M05 A3027 RMK A01 T01511051  RH  024%=      5-min Rain = 0
KAM3 132039Z 14003KT 15/M05 A3027 RMK A01 T01501048  RH  025%=      5-min Rain = 0
KAM3 132040Z 13003KT 15/M05 A3027 RMK A01 T01531049  RH  024%=      5-min Rain = 0
KAM3 132041Z 14009KT 15/M05 A3027 RMK A01 T01531049  RH  024%=      5-min Rain = 0
KAM3 132042Z 14011KT 15/M05 A3027 RMK A01 T01541050  RH  024%=      5-min Rain = 0
KAM3 132043Z 16009KT 15/M05 A3027 RMK A01 T01541049  RH  024%=      5-min Rain = 0
KAM3 132044Z 16010KT 16/M05 A3027 RMK A01 T01561049  RH  024%=      5-min Rain = 0
KAM3 132045Z 15007KT 16/M05 A3027 RMK A01 T01561049  RH  024%=      5-min Rain = 0
KAM3 132046Z 17008KT 16/M05 A3027 RMK A01 T01561049  RH  024%=      5-min Rain = 0
KAM3 132047Z 17008KT 16/M05 A3027 RMK A01 T01571049  RH  024%=      5-min Rain = 0
KAM3 132048Z 20007KT 16/M05 A3027 RMK A01 T01591047  RH  024%=      5-min Rain = 0
KAM3 132049Z 20006KT 16/M05 A3027 RMK A01 T01611048  RH  023%=      5-min Rain = 0
KAM3 132050Z 20005KT 16/M05 A3027 RMK A01 T01601049  RH  023%=      5-min Rain = 0
KAM3 132051Z 19005KT 16/M05 A3027 RMK A01 T01591050  RH  023%=      5-min Rain = 0
KAM3 132052Z 21002KT 16/M05 A3027 RMK A01 T01561049  RH  024%=      5-min Rain = 0
KAM3 132053Z 11003KT 16/M05 A3027 RMK A01 T01581048  RH  024%=      5-min Rain = 0
KAM3 132054Z 11004KT 16/M05 A3027 RMK A01 T01581049  RH  024%=      5-min Rain = 0
KAM3 132055Z 13003KT 16/M05 A3027 RMK A01 T01581050  RH  024%=      5-min Rain = 0
KAM3 132056Z 07003KT 16/M05 A3027 RMK A01 T01561050  RH  024%=      5-min Rain = 0
KAM3 132057Z 13007G13KT 16/M05 A3027 RMK A01 T01551051  RH  024%=      5-min Rain = 0
KAM3 132058Z 16010KT 16/M05 A3027 RMK A01 T01551051  RH  024%=      5-min Rain = 0
KAM3 132059Z 16008KT 16/M05 A3027 RMK A01 T01551051  RH  024%=      5-min Rain = 0
KAM3 132100Z 17008KT 15/M05 A3027 RMK A01 T01541051  RH  024%=      5-min Rain = 0
KAM3 132101Z 15010KT 16/M05 A3027 RMK A01 T01551050  RH  024%=      5-min Rain = 0
KAM3 132102Z 15007KT 15/M05 A3027 RMK A01 T01531052  RH  024%=      5-min Rain = 0
KAM3 132103Z 15006KT 15/M05 A3027 RMK A01 T01501052  RH  024%=      5-min Rain = 0
KAM3 132104Z 19006KT 15/M05 A3027 RMK A01 T01481051  RH  025%=      5-min Rain = 0
KAM3 132105Z 20006KT 15/M05 A3027 RMK A01 T01481051  RH  025%=      5-min Rain = 0
KAM3 132106Z 18003KT 15/M05 A3027 RMK A01 T01471051  RH  025%=      5-min Rain = 0
KAM3 132107Z 13001KT 15/M05 A3027 RMK A01 T01461051  RH  025%=      5-min Rain = 0
KAM3 132108Z 17004KT 15/M05 A3027 RMK A01 T01451051  RH  025%=      5-min Rain = 0
KAM3 132109Z 14005KT 15/M05 A3027 RMK A01 T01451051  RH  025%=      5-min Rain = 0
KAM3 132110Z 14005KT 15/M05 A3027 RMK A01 T01451052  RH  025%=      5-min Rain = 0
KAM3 132111Z 14007KT 15/M05 A3027 RMK A01 T01461051  RH  025%=      5-min Rain = 0
KAM3 132112Z 15007KT 15/M05 A3027 RMK A01 T01481052  RH  025%=      5-min Rain = 0
KAM3 132113Z 18005KT 15/M05 A3027 RMK A01 T01471053  RH  025%=      5-min Rain = 0
KAM3 132114Z 18001KT 15/M05 A3027 RMK A01 T01461053  RH  025%=      5-min Rain = 0
KAM3 132115Z 13001KT 15/M05 A3027 RMK A01 T01451052  RH  025%=      5-min Rain = 0
KAM3 132116Z 12002KT 15/M05 A3027 RMK A01 T01461052  RH  025%=      5-min Rain = 0
KAM3 132117Z 12006KT 15/M05 A3027 RMK A01 T01471051  RH  025%=      5-min Rain = 0
KAM3 132118Z 14004KT 15/M05 A3027 RMK A01 T01471052  RH  025%=      5-min Rain = 0
KAM3 132119Z 14004KT 15/M05 A3027 RMK A01 T01461052  RH  025%=      5-min Rain = 0
KAM3 132120Z 17005KT 15/M05 A3027 RMK A01 T01461050  RH  025%=      5-min Rain = 0
KAM3 132121Z 21005KT 15/M05 A3027 RMK A01 T01501048  RH  025%=      5-min Rain = 0
KAM3 132122Z 18008G13KT 15/M05 A3027 RMK A01 T01521049  RH  025%=      5-min Rain = 0
KAM3 132123Z 18006KT 15/M05 A3027 RMK A01 T01521050  RH  024%=      5-min Rain = 0
KAM3 132124Z 18007KT 15/M05 A3027 RMK A01 T01501051  RH  024%=      5-min Rain = 0
KAM3 132125Z 17007KT 15/M05 A3026 RMK A01 T01491051  RH  025%=      5-min Rain = 0
KAM3 132126Z 16005KT 15/M05 A3026 RMK A01 T01481051  RH  025%=      5-min Rain = 0
KAM3 132127Z 15005KT 15/M05 A3026 RMK A01 T01491051  RH  025%=      5-min Rain = 0
KAM3 132128Z 13003KT 15/M05 A3026 RMK A01 T01491051  RH  025%=      5-min Rain = 0
KAM3 132129Z 12003KT 15/M05 A3026 RMK A01 T01491051  RH  025%=      5-min Rain = 0
KAM3 132130Z 14003KT 15/M05 A3026 RMK A01 T01491051  RH  025%=      5-min Rain = 0
KAM3 132131Z 14005KT 15/M05 A3026 RMK A01 T01491051  RH  025%=      5-min Rain = 0
KAM3 132132Z 17005KT 15/M05 A3026 RMK A01 T01491051  RH  025%=      5-min Rain = 0
KAM3 132133Z 18009KT 15/M05 A3026 RMK A01 T01501051  RH  025%=      5-min Rain = 0
KAM3 132134Z 17008KT 15/M05 A3026 RMK A01 T01511050  RH  025%=      5-min Rain = 0
KAM3 132135Z 19004KT 15/M05 A3026 RMK A01 T01511050  RH  025%=      5-min Rain = 0
KAM3 132136Z 19005KT 15/M05 A3026 RMK A01 T01511050  RH  025%=      5-min Rain = 0
KAM3 132137Z 19006KT 15/M05 A3026 RMK A01 T01511050  RH  025%=      5-min Rain = 0
KAM3 132138Z 19006KT 15/M05 A3026 RMK A01 T01511050  RH  025%=      5-min Rain = 0
KAM3 132139Z 20004KT 15/M05 A3026 RMK A01 T01511049  RH  025%=      5-min Rain = 0
KAM3 132140Z 18004KT 15/M05 A3026 RMK A01 T01521049  RH  025%=      5-min Rain = 0
KAM3 132141Z 17004KT 15/M05 A3026 RMK A01 T01531049  RH  024%=      5-min Rain = 0
KAM3 132142Z 18003KT 15/M05 A3026 RMK A01 T01541049  RH  024%=      5-min Rain = 0
KAM3 132143Z 17006G11KT 16/M05 A3026 RMK A01 T01551049  RH  024%=      5-min Rain = 0
KAM3 132144Z 18010KT 15/M05 A3026 RMK A01 T01541049  RH  024%=      5-min Rain = 0
KAM3 132145Z 19008KT 15/M05 A3026 RMK A01 T01541049  RH  024%=      5-min Rain = 0
KAM3 132146Z 20008KT 15/M05 A3026 RMK A01 T01541049  RH  024%=      5-min Rain = 0
KAM3 132147Z 21004KT 15/M05 A3026 RMK A01 T01521051  RH  024%=      5-min Rain = 0
KAM3 132148Z 19005KT 15/M05 A3026 RMK A01 T01501050  RH  025%=      5-min Rain = 0
KAM3 132149Z 21004KT 15/M05 A3026 RMK A01 T01501050  RH  025%=      5-min Rain = 0
KAM3 132150Z 21005KT 15/M05 A3026 RMK A01 T01501050  RH  025%=      5-min Rain = 0
KAM3 132151Z 17007G12KT 15/M05 A3026 RMK A01 T01501049  RH  025%=      5-min Rain = 0
KAM3 132152Z 11008KT 15/M05 A3026 RMK A01 T01501051  RH  025%=      5-min Rain = 0
KAM3 132153Z 14009KT 15/M05 A3026 RMK A01 T01501051  RH  025%=      5-min Rain = 0
KAM3 132154Z 13010KT 15/M05 A3026 RMK A01 T01501052  RH  024%=      5-min Rain = 0
KAM3 132155Z 11007KT 15/M05 A3026 RMK A01 T01501052  RH  024%=      5-min Rain = 0
KAM3 132156Z 13007KT 15/M05 A3026 RMK A01 T01501052  RH  024%=      5-min Rain = 0
KAM3 132157Z 12007KT 15/M05 A3026 RMK A01 T01501052  RH  024%=      5-min Rain = 0
KAM3 132158Z 12007KT 15/M05 A3026 RMK A01 T01481053  RH  025%=      5-min Rain = 0
KAM3 132159Z 13008KT 15/M05 A3026 RMK A01 T01481052  RH  025%=      5-min Rain = 0
KAM3 132200Z 11007KT 15/M05 A3026 RMK A01 T01491052  RH  025%=      5-min Rain = 0
KAM3 132201Z 11006KT 15/M05 A3026 RMK A01 T01491052  RH  024%=      5-min Rain = 0
KAM3 132202Z 12007KT 15/M05 A3026 RMK A01 T01481053  RH  025%=      5-min Rain = 0
KAM3 132203Z 11005KT 15/M05 A3026 RMK A01 T01471053  RH  025%=      5-min Rain = 0
KAM3 132204Z 12003KT 15/M05 A3026 RMK A01 T01451054  RH  025%=      5-min Rain = 0
KAM3 132205Z 11006KT 14/M05 A3026 RMK A01 T01441052  RH  025%=      5-min Rain = 0
KAM3 132206Z 12006KT 15/M05 A3026 RMK A01 T01451052  RH  025%=      5-min Rain = 0
KAM3 132207Z 12006KT 15/M05 A3026 RMK A01 T01451053  RH  025%=      5-min Rain = 0
KAM3 132208Z 12005KT 15/M05 A3026 RMK A01 T01451053  RH  025%=      5-min Rain = 0
KAM3 132209Z 11007KT 15/M05 A3026 RMK A01 T01471052  RH  025%=      5-min Rain = 0
KAM3 132210Z 13007KT 15/M05 A3026 RMK A01 T01491051  RH  025%=      5-min Rain = 0
KAM3 132211Z 13006KT 15/M05 A3026 RMK A01 T01541049  RH  024%=      5-min Rain = 0
KAM3 132212Z 12006KT 16/M05 A3026 RMK A01 T01551051  RH  024%=      5-min Rain = 0
KAM3 132213Z 13006KT 15/M05 A3026 RMK A01 T01521053  RH  024%=      5-min Rain = 0
KAM3 132214Z 15007KT 15/M05 A3026 RMK A01 T01501052  RH  024%=      5-min Rain = 0
KAM3 132215Z 15006KT 15/M05 A3026 RMK A01 T01501052  RH  024%=      5-min Rain = 0
KAM3 132216Z 15005KT 15/M05 A3026 RMK A01 T01491051  RH  025%=      5-min Rain = 0
KAM3 132217Z 17004KT 15/M05 A3026 RMK A01 T01491051  RH  025%=      5-min Rain = 0
KAM3 132218Z 16006KT 15/M05 A3026 RMK A01 T01501051  RH  025%=      5-min Rain = 0
KAM3 132219Z 16008KT 15/M05 A3026 RMK A01 T01501051  RH  025%=      5-min Rain = 0
KAM3 132220Z 16008KT 15/M05 A3026 RMK A01 T01501051  RH  025%=      5-min Rain = 0
KAM3 132221Z 15010KT 15/M05 A3026 RMK A01 T01501050  RH  025%=      5-min Rain = 0
KAM3 132222Z 15009KT 15/M05 A3026 RMK A01 T01491051  RH  025%=      5-min Rain = 0
KAM3 132223Z 15007KT 15/M05 A3026 RMK A01 T01471052  RH  025%=      5-min Rain = 0
KAM3 132224Z 15006KT 15/M05 A3026 RMK A01 T01471052  RH  025%=      5-min Rain = 0
KAM3 132225Z 15009KT 15/M05 A3026 RMK A01 T01461052  RH  025%=      5-min Rain = 0
KAM3 132226Z 17008KT 15/M05 A3026 RMK A01 T01461051  RH  025%=      5-min Rain = 0
KAM3 132227Z 17007KT 15/M05 A3026 RMK A01 T01471051  RH  025%=      5-min Rain = 0
KAM3 132228Z 13007KT 15/M05 A3026 RMK A01 T01471051  RH  025%=      5-min Rain = 0
KAM3 132229Z 14007KT 15/M05 A3026 RMK A01 T01461051  RH  025%=      5-min Rain = 0
KAM3 132230Z 14008KT 15/M05 A3026 RMK A01 T01471051  RH  025%=      5-min Rain = 0
KAM3 132231Z 15009KT 15/M05 A3026 RMK A01 T01481051  RH  025%=      5-min Rain = 0
KAM3 132232Z 16008KT 15/M05 A3026 RMK A01 T01501050  RH  025%=      5-min Rain = 0
KAM3 132233Z 15008KT 15/M05 A3026 RMK A01 T01511050  RH  025%=      5-min Rain = 0
KAM3 132234Z 15009KT 15/M05 A3026 RMK A01 T01521050  RH  025%=      5-min Rain = 0
KAM3 132235Z 16007KT 15/M05 A3026 RMK A01 T01511051  RH  025%=      5-min Rain = 0
KAM3 132236Z 19008KT 15/M05 A3026 RMK A01 T01511049  RH  025%=      5-min Rain = 0
KAM3 132237Z 19008KT 15/M05 A3026 RMK A01 T01511050  RH  025%=      5-min Rain = 0
KAM3 132238Z 18009KT 15/M05 A3026 RMK A01 T01511050  RH  025%=      5-min Rain = 0
KAM3 132239Z 18009KT 15/M05 A3026 RMK A01 T01501051  RH  025%=      5-min Rain = 0
KAM3 132240Z 18008KT 15/M05 A3026 RMK A01 T01481051  RH  025%=      5-min Rain = 0
KAM3 132241Z 19007KT 15/M05 A3026 RMK A01 T01481051  RH  025%=      5-min Rain = 0
KAM3 132242Z 18007KT 15/M05 A3026 RMK A01 T01471051  RH  025%=      5-min Rain = 0
KAM3 132243Z 18006KT 15/M05 A3026 RMK A01 T01461051  RH  025%=      5-min Rain = 0
KAM3 132244Z 20006KT 15/M05 A3025 RMK A01 T01451052  RH  025%=      5-min Rain = 0
KAM3 132245Z 21005KT 15/M05 A3025 RMK A01 T01451051  RH  025%=      5-min Rain = 0
KAM3 132246Z 21003KT 15/M05 A3025 RMK A01 T01451051  RH  025%=      5-min Rain = 0
KAM3 132247Z 19003KT 14/M05 A3025 RMK A01 T01441052  RH  025%=      5-min Rain = 0
KAM3 132248Z 17007KT 14/M05 A3025 RMK A01 T01441050  RH  026%=      5-min Rain = 0
KAM3 132249Z 17010KT 15/M05 A3025 RMK A01 T01461051  RH  025%=      5-min Rain = 0
KAM3 132250Z 17009KT 15/M05 A3025 RMK A01 T01471051  RH  025%=      5-min Rain = 0
KAM3 132251Z 17006KT 15/M05 A3025 RMK A01 T01471051  RH  025%=      5-min Rain = 0
KAM3 132252Z 16006KT 15/M05 A3025 RMK A01 T01471051  RH  025%=      5-min Rain = 0
KAM3 132253Z 14006KT 15/M05 A3025 RMK A01 T01471051  RH  025%=      5-min Rain = 0
KAM3 132254Z 14006KT 15/M05 A3025 RMK A01 T01461052  RH  025%=      5-min Rain = 0
KAM3 132255Z 15006KT 15/M05 A3025 RMK A01 T01461051  RH  025%=      5-min Rain = 0
KAM3 132256Z 17010KT 15/M05 A3025 RMK A01 T01461051  RH  025%=      5-min Rain = 0
KAM3 132257Z 18009KT 15/M05 A3025 RMK A01 T01471051  RH  025%=      5-min Rain = 0
KAM3 132258Z 19007KT 15/M05 A3025 RMK A01 T01461051  RH  025%=      5-min Rain = 0
KAM3 132259Z 19008KT 15/M05 A3025 RMK A01 T01461051  RH  025%=      5-min Rain = 0
KAM3 132300Z 20008KT 15/M05 A3025 RMK A01 T01471051  RH  025%=      5-min Rain = 0
KAM3 132301Z 19004KT 15/M05 A3025 RMK A01 T01471052  RH  025%=      5-min Rain = 0
KAM3 132302Z 19004KT 15/M05 A3025 RMK A01 T01461052  RH  025%=      5-min Rain = 0
KAM3 132303Z 17005KT 15/M05 A3025 RMK A01 T01461051  RH  025%=      5-min Rain = 0
KAM3 132304Z 15005KT 15/M05 A3025 RMK A01 T01461052  RH  025%=      5-min Rain = 0
KAM3 132305Z 16005KT 15/M05 A3025 RMK A01 T01471051  RH  025%=      5-min Rain = 0
KAM3 132306Z 18007KT 15/M05 A3025 RMK A01 T01471051  RH  025%=      5-min Rain = 0
KAM3 132307Z 16008KT 15/M05 A3025 RMK A01 T01481052  RH  025%=      5-min Rain = 0
KAM3 132308Z 17008KT 15/M05 A3025 RMK A01 T01491051  RH  025%=      5-min Rain = 0
KAM3 132309Z 16009KT 15/M05 A3025 RMK A01 T01501052  RH  025%=      5-min Rain = 0
KAM3 132310Z 15008KT 15/M05 A3025 RMK A01 T01501052  RH  024%=      5-min Rain = 0
KAM3 132311Z 14009KT 15/M05 A3025 RMK A01 T01491052  RH  024%=      5-min Rain = 0
KAM3 132312Z 15010KT 15/M05 A3025 RMK A01 T01491053  RH  024%=      5-min Rain = 0
KAM3 132313Z 15010KT 15/M05 A3025 RMK A01 T01491053  RH  024%=      5-min Rain = 0
KAM3 132314Z 16010KT 15/M05 A3025 RMK A01 T01481053  RH  024%=      5-min Rain = 0
KAM3 132315Z 16009KT 15/M05 A3025 RMK A01 T01471053  RH  025%=      5-min Rain = 0
KAM3 132316Z 16008KT 15/M05 A3025 RMK A01 T01471053  RH  025%=      5-min Rain = 0
KAM3 132317Z 17008KT 15/M05 A3025 RMK A01 T01471053  RH  025%=      5-min Rain = 0
KAM3 132318Z 16006KT 15/M05 A3025 RMK A01 T01471053  RH  025%=      5-min Rain = 0
KAM3 132319Z 14006KT 15/M05 A3025 RMK A01 T01481052  RH  025%=      5-min Rain = 0
KAM3 132320Z 14008KT 15/M05 A3025 RMK A01 T01511051  RH  024%=      5-min Rain = 0
KAM3 132321Z 14009KT 15/M05 A3025 RMK A01 T01521053  RH  024%=      5-min Rain = 0
KAM3 132322Z 13007KT 15/M05 A3025 RMK A01 T01521053  RH  024%=      5-min Rain = 0
KAM3 132323Z 12010KT 15/M05 A3025 RMK A01 T01541052  RH  024%=      5-min Rain = 0
KAM3 132324Z 14008KT 15/M05 A3025 RMK A01 T01531053  RH  024%=      5-min Rain = 0
KAM3 132325Z 13007KT 15/M05 A3025 RMK A01 T01531053  RH  024%=      5-min Rain = 0
KAM3 132326Z 12007KT 15/M05 A3025 RMK A01 T01531052  RH  024%=      5-min Rain = 0
KAM3 132327Z 12008KT 15/M05 A3025 RMK A01 T01531053  RH  024%=      5-min Rain = 0
KAM3 132328Z 11011KT 15/M05 A3025 RMK A01 T01531052  RH  024%=      5-min Rain = 0
KAM3 132329Z 11009KT 15/M05 A3025 RMK A01 T01521053  RH  024%=      5-min Rain = 0
KAM3 132330Z 11009KT 15/M05 A3024 RMK A01 T01521053  RH  024%=      5-min Rain = 0
KAM3 132331Z 12006KT 15/M05 A3024 RMK A01 T01521053  RH  024%=      5-min Rain = 0
KAM3 132332Z 12008KT 15/M05 A3025 RMK A01 T01521053  RH  024%=      5-min Rain = 0
KAM3 132333Z 13007KT 15/M05 A3025 RMK A01 T01511053  RH  024%=      5-min Rain = 0
KAM3 132334Z 17007KT 15/M05 A3025 RMK A01 T01511053  RH  024%=      5-min Rain = 0
KAM3 132335Z 13008KT 15/M05 A3025 RMK A01 T01511052  RH  024%=      5-min Rain = 0
KAM3 132336Z 13007KT 15/M05 A3025 RMK A01 T01511052  RH  024%=      5-min Rain = 0
KAM3 132337Z 13007KT 15/M05 A3025 RMK A01 T01511053  RH  024%=      5-min Rain = 0
KAM3 132338Z 13005KT 15/M05 A3025 RMK A01 T01491053  RH  024%=      5-min Rain = 0
KAM3 132339Z 10006KT 15/M05 A3025 RMK A01 T01491052  RH  025%=      5-min Rain = 0
KAM3 132340Z 11004KT 15/M05 A3025 RMK A01 T01491053  RH  024%=      5-min Rain = 0
KAM3 132341Z 10003KT 15/M05 A3025 RMK A01 T01471053  RH  025%=      5-min Rain = 0
KAM3 132342Z 11004KT 15/M05 A3025 RMK A01 T01451053  RH  025%=      5-min Rain = 0
KAM3 132343Z 11006KT 15/M05 A3024 RMK A01 T01451053  RH  025%=      5-min Rain = 0
KAM3 132344Z 13006KT 15/M05 A3024 RMK A01 T01451053  RH  025%=      5-min Rain = 0
KAM3 132345Z 13006KT 15/M05 A3024 RMK A01 T01461052  RH  025%=      5-min Rain = 0
KAM3 132346Z 13006KT 15/M05 A3024 RMK A01 T01481052  RH  025%=      5-min Rain = 0
KAM3 132347Z 16006KT 15/M05 A3024 RMK A01 T01481052  RH  025%=      5-min Rain = 0
KAM3 132348Z 17007KT 15/M05 A3024 RMK A01 T01481052  RH  025%=      5-min Rain = 0
KAM3 132349Z 18005KT 15/M05 A3024 RMK A01 T01491052  RH  024%=      5-min Rain = 0
KAM3 132350Z 17005KT 15/M05 A3024 RMK A01 T01481052  RH  025%=      5-min Rain = 0
KAM3 132351Z 16004KT 15/M05 A3025 RMK A01 T01471053  RH  025%=      5-min Rain = 0
KAM3 132352Z 15004KT 15/M05 A3025 RMK A01 T01451053  RH  025%=      5-min Rain = 0
KAM3 132353Z 12005KT 14/M05 A3025 RMK A01 T01441053  RH  025%=      5-min Rain = 0
KAM3 132354Z 12006KT 14/M05 A3025 RMK A01 T01421054  RH  025%=      5-min Rain = 0
KAM3 132355Z 14005KT 14/M05 A3025 RMK A01 T01411054  RH  025%=      5-min Rain = 0
KAM3 132356Z 15005KT 14/M05 A3025 RMK A01 T01401054  RH  026%=      5-min Rain = 0
KAM3 132357Z 14004KT 14/M05 A3025 RMK A01 T01401054  RH  026%=      5-min Rain = 0
KAM3 132358Z 14005KT 14/M05 A3025 RMK A01 T01391054  RH  026%=      5-min Rain = 0
KAM3 132359Z 14007KT 14/M05 A3025 RMK A01 T01391054  RH  026%=      5-min Rain = 0
KAM3 140000Z 13008KT 14/M06 A3025 RMK A01 T01381055  RH  026%=      5-min Rain = 0
KAM3 140001Z 12008KT 14/M06 A3025 RMK A01 T01371055  RH  026%=      5-min Rain = 0
KAM3 140002Z 12008KT 14/M06 A3025 RMK A01 T01361055  RH  026%=      5-min Rain = 0
KAM3 140003Z 12008KT 14/M05 A3025 RMK A01 T01351054  RH  026%=      5-min Rain = 0
KAM3 140004Z 13008KT 14/M06 A3025 RMK A01 T01351055  RH  026%=      5-min Rain = 0
KAM3 140005Z 13006KT 13/M06 A3024 RMK A01 T01341055  RH  026%=      5-min Rain = 0
KAM3 140006Z 13005KT 13/M05 A3024 RMK A01 T01341054  RH  027%=      5-min Rain = 0
KAM3 140007Z 13006KT 13/M05 A3024 RMK A01 T01341054  RH  027%=      5-min Rain = 0
KAM3 140008Z 13006KT 13/M06 A3024 RMK A01 T01341055  RH  027%=      5-min Rain = 0
KAM3 140009Z 12009KT 13/M05 A3024 RMK A01 T01331054  RH  027%=      5-min Rain = 0
KAM3 140010Z 14010KT 13/M05 A3024 RMK A01 T01331054  RH  027%=      5-min Rain = 0
KAM3 140011Z 16007KT 13/M05 A3024 RMK A01 T01331054  RH  027%=      5-min Rain = 0
KAM3 140012Z 16006KT 13/M05 A3025 RMK A01 T01331054  RH  027%=      5-min Rain = 0
KAM3 140013Z 16005KT 13/M05 A3025 RMK A01 T01321054  RH  027%=      5-min Rain = 0
KAM3 140014Z 16006KT 13/M06 A3025 RMK A01 T01311055  RH  027%=      5-min Rain = 0
KAM3 140015Z 16005KT 13/M06 A3025 RMK A01 T01301055  RH  027%=      5-min Rain = 0
KAM3 140016Z 15005KT 13/M06 A3025 RMK A01 T01291055  RH  027%=      5-min Rain = 0
KAM3 140017Z 15005KT 13/M05 A3025 RMK A01 T01291054  RH  027%=      5-min Rain = 0
KAM3 140018Z 15004KT 13/M06 A3025 RMK A01 T01281055  RH  027%=      5-min Rain = 0
KAM3 140019Z 15005KT 13/M06 A3025 RMK A01 T01271055  RH  028%=      5-min Rain = 0
KAM3 140020Z 15004KT 13/M06 A3025 RMK A01 T01261055  RH  028%=      5-min Rain = 0
KAM3 140021Z 15006KT 13/M06 A3025 RMK A01 T01261055  RH  028%=      5-min Rain = 0
KAM3 140022Z 15006KT 13/M06 A3025 RMK A01 T01251055  RH  028%=      5-min Rain = 0
KAM3 140023Z 15006KT 13/M06 A3025 RMK A01 T01251055  RH  028%=      5-min Rain = 0
KAM3 140024Z 15005KT 12/M06 A3025 RMK A01 T01241055  RH  028%=      5-min Rain = 0
KAM3 140025Z 14005KT 12/M06 A3025 RMK A01 T01231056  RH  028%=      5-min Rain = 0
KAM3 140026Z 14006KT 12/M06 A3025 RMK A01 T01221056  RH  028%=      5-min Rain = 0
KAM3 140027Z 14005KT 12/M06 A3025 RMK A01 T01211056  RH  029%=      5-min Rain = 0
KAM3 140028Z 13005KT 12/M06 A3025 RMK A01 T01211056  RH  029%=      5-min Rain = 0
KAM3 140029Z 13004KT 12/M06 A3025 RMK A01 T01201056  RH  029%=      5-min Rain = 0
KAM3 140030Z 13004KT 12/M06 A3025 RMK A01 T01191057  RH  029%=      5-min Rain = 0
KAM3 140031Z 11004KT 12/M06 A3025 RMK A01 T01181057  RH  029%=      5-min Rain = 0
KAM3 140032Z 12004KT 12/M06 A3025 RMK A01 T01171057  RH  029%=      5-min Rain = 0
KAM3 140033Z 10003KT 12/M06 A3025 RMK A01 T01161058  RH  029%=      5-min Rain = 0
KAM3 140034Z 05003KT 11/M06 A3025 RMK A01 T01141058  RH  029%=      5-min Rain = 0
KAM3 140035Z 04005KT 11/M06 A3025 RMK A01 T01121059  RH  030%=      5-min Rain = 0
KAM3 140036Z 05005KT 11/M06 A3025 RMK A01 T01101060  RH  030%=      5-min Rain = 0
KAM3 140037Z 05004KT 11/M06 A3025 RMK A01 T01081059  RH  031%=      5-min Rain = 0
KAM3 140038Z 04004KT 11/M06 A3025 RMK A01 T01071059  RH  031%=      5-min Rain = 0
KAM3 140039Z 05005KT 11/M06 A3025 RMK A01 T01051060  RH  031%=      5-min Rain = 0
KAM3 140040Z 04005KT 10/M06 A3025 RMK A01 T01021059  RH  032%=      5-min Rain = 0
KAM3 140041Z 05005KT 10/M06 A3025 RMK A01 T01021058  RH  032%=      5-min Rain = 0
KAM3 140042Z 06004KT 10/M06 A3025 RMK A01 T01021058  RH  032%=      5-min Rain = 0
KAM3 140043Z 05004KT 10/M06 A3025 RMK A01 T01021058  RH  032%=      5-min Rain = 0
KAM3 140044Z 05004KT 10/M06 A3025 RMK A01 T01031059  RH  031%=      5-min Rain = 0
KAM3 140045Z 04007KT 10/M06 A3025 RMK A01 T01031061  RH  031%=      5-min Rain = 0
KAM3 140046Z 04007KT 10/M06 A3025 RMK A01 T00991062  RH  031%=      5-min Rain = 0
KAM3 140047Z 03007KT 10/M06 A3025 RMK A01 T00991061  RH  032%=      5-min Rain = 0
KAM3 140048Z 03007KT 10/M06 A3025 RMK A01 T00981061  RH  032%=      5-min Rain = 0
KAM3 140049Z 04006KT 10/M06 A3025 RMK A01 T00961062  RH  032%=      5-min Rain = 0
KAM3 140050Z 04007KT 10/M06 A3025 RMK A01 T00951062  RH  033%=      5-min Rain = 0
KAM3 140051Z 04005KT 10/M06 A3025 RMK A01 T00951061  RH  033%=      5-min Rain = 0
KAM3 140052Z 04005KT 10/M06 A3025 RMK A01 T00961060  RH  033%=      5-min Rain = 0
KAM3 140053Z 05005KT 10/M06 A3025 RMK A01 T00971060  RH  032%=      5-min Rain = 0
KAM3 140054Z 06006KT 10/M06 A3025 RMK A01 T00971061  RH  032%=      5-min Rain = 0
KAM3 140055Z 06005KT 10/M06 A3025 RMK A01 T00961062  RH  032%=      5-min Rain = 0
KAM3 140056Z 06005KT 10/M06 A3025 RMK A01 T00951063  RH  032%=      5-min Rain = 0
KAM3 140057Z 06005KT 09/M06 A3025 RMK A01 T00921064  RH  033%=      5-min Rain = 0
KAM3 140058Z 06005KT 09/M06 A3025 RMK A01 T00901063  RH  033%=      5-min Rain = 0
KAM3 140059Z 06005KT 09/M06 A3025 RMK A01 T00911062  RH  033%=      5-min Rain = 0
KAM3 140100Z 05005KT 09/M06 A3025 RMK A01 T00911063  RH  033%=      5-min Rain = 0
KAM3 140101Z 05006KT 09/M06 A3025 RMK A01 T00911063  RH  033%=      5-min Rain = 0
KAM3 140102Z 05005KT 09/M06 A3025 RMK A01 T00911063  RH  033%=      5-min Rain = 0
KAM3 140103Z 05005KT 09/M07 A3025 RMK A01 T00891065  RH  033%=      5-min Rain = 0
KAM3 140104Z 05005KT 09/M07 A3025 RMK A01 T00871065  RH  033%=      5-min Rain = 0
KAM3 140105Z 05005KT 09/M07 A3025 RMK A01 T00861065  RH  034%=      5-min Rain = 0
KAM3 140106Z 06005KT 08/M07 A3025 RMK A01 T00841066  RH  034%=      5-min Rain = 0
KAM3 140107Z 06005KT 08/M07 A3025 RMK A01 T00831066  RH  034%=      5-min Rain = 0
KAM3 140108Z 07005KT 08/M07 A3025 RMK A01 T00821066  RH  034%=      5-min Rain = 0
KAM3 140109Z 07004KT 08/M07 A3025 RMK A01 T00811067  RH  034%=      5-min Rain = 0
KAM3 140110Z 09005KT 08/M07 A3025 RMK A01 T00801067  RH  035%=      5-min Rain = 0
KAM3 140111Z 09005KT 08/M07 A3025 RMK A01 T00801066  RH  035%=      5-min Rain = 0
KAM3 140112Z 10006KT 08/M07 A3025 RMK A01 T00791065  RH  035%=      5-min Rain = 0
KAM3 140113Z 11004KT 08/M06 A3025 RMK A01 T00811063  RH  035%=      5-min Rain = 0
KAM3 140114Z 11005KT 08/M06 A3025 RMK A01 T00821062  RH  035%=      5-min Rain = 0
KAM3 140115Z 11005KT 08/M06 A3025 RMK A01 T00841061  RH  035%=      5-min Rain = 0
KAM3 140116Z 11005KT 09/M06 A3025 RMK A01 T00861060  RH  035%=      5-min Rain = 0
KAM3 140117Z 12005KT 09/M06 A3025 RMK A01 T00871061  RH  035%=      5-min Rain = 0
KAM3 140118Z 12004KT 09/M06 A3025 RMK A01 T00881060  RH  035%=      5-min Rain = 0
KAM3 140119Z 12005KT 09/M06 A3025 RMK A01 T00881060  RH  034%=      5-min Rain = 0
KAM3 140120Z 12005KT 09/M06 A3025 RMK A01 T00901059  RH  034%=      5-min Rain = 0
KAM3 140121Z 12005KT 09/M06 A3025 RMK A01 T00911060  RH  034%=      5-min Rain = 0
KAM3 140122Z 13004KT 09/M06 A3025 RMK A01 T00911060  RH  034%=      5-min Rain = 0
KAM3 140123Z 12006KT 09/M06 A3025 RMK A01 T00911060  RH  034%=      5-min Rain = 0
KAM3 140124Z 12006KT 09/M06 A3025 RMK A01 T00911060  RH  034%=      5-min Rain = 0
KAM3 140125Z 12006KT 09/M06 A3025 RMK A01 T00911060  RH  034%=      5-min Rain = 0
KAM3 140126Z 13006KT 09/M06 A3025 RMK A01 T00891060  RH  034%=      5-min Rain = 0
KAM3 140127Z 13006KT 09/M06 A3025 RMK A01 T00891060  RH  034%=      5-min Rain = 0
KAM3 140128Z 12006KT 09/M06 A3025 RMK A01 T00881060  RH  034%=      5-min Rain = 0
KAM3 140129Z 12006KT 09/M06 A3025 RMK A01 T00871060  RH  035%=      5-min Rain = 0
KAM3 140130Z 13006KT 09/M06 A3025 RMK A01 T00871059  RH  035%=      5-min Rain = 0
KAM3 140131Z 13007KT 09/M06 A3025 RMK A01 T00871059  RH  035%=      5-min Rain = 0
KAM3 140132Z 13006KT 09/M06 A3025 RMK A01 T00871059  RH  035%=      5-min Rain = 0
KAM3 140133Z 13006KT 09/M06 A3025 RMK A01 T00871059  RH  035%=      5-min Rain = 0
KAM3 140134Z 13007KT 09/M06 A3025 RMK A01 T00881058  RH  035%=      5-min Rain = 0
KAM3 140135Z 13007KT 09/M06 A3025 RMK A01 T00881058  RH  035%=      5-min Rain = 0
KAM3 140136Z 13007KT 09/M06 A3025 RMK A01 T00901058  RH  035%=      5-min Rain = 0
KAM3 140137Z 13008KT 09/M06 A3025 RMK A01 T00901058  RH  035%=      5-min Rain = 0
KAM3 140138Z 13007KT 09/M06 A3025 RMK A01 T00911058  RH  034%=      5-min Rain = 0
KAM3 140139Z 13007KT 09/M06 A3025 RMK A01 T00911058  RH  034%=      5-min Rain = 0
KAM3 140140Z 13007KT 09/M06 A3025 RMK A01 T00911059  RH  034%=      5-min Rain = 0
KAM3 140141Z 13006KT 09/M06 A3025 RMK A01 T00901059  RH  034%=      5-min Rain = 0
KAM3 140142Z 13006KT 09/M06 A3025 RMK A01 T00891059  RH  035%=      5-min Rain = 0
KAM3 140143Z 13007KT 09/M06 A3025 RMK A01 T00881059  RH  035%=      5-min Rain = 0
KAM3 140144Z 13007KT 09/M06 A3025 RMK A01 T00881059  RH  035%=      5-min Rain = 0
KAM3 140145Z 14007KT 09/M06 A3025 RMK A01 T00881059  RH  035%=      5-min Rain = 0
KAM3 140146Z 13007KT 09/M06 A3025 RMK A01 T00881059  RH  035%=      5-min Rain = 0
KAM3 140147Z 13007KT 09/M06 A3025 RMK A01 T00881059  RH  035%=      5-min Rain = 0
KAM3 140148Z 13006KT 09/M06 A3025 RMK A01 T00881059  RH  035%=      5-min Rain = 0
KAM3 140149Z 12006KT 09/M06 A3025 RMK A01 T00871059  RH  035%=      5-min Rain = 0
KAM3 140150Z 11006KT 09/M06 A3026 RMK A01 T00861060  RH  035%=      5-min Rain = 0
KAM3 140151Z 09007KT 08/M06 A3026 RMK A01 T00841061  RH  035%=      5-min Rain = 0
KAM3 140152Z 09006KT 08/M06 A3026 RMK A01 T00821062  RH  036%=      5-min Rain = 0
KAM3 140153Z 09007KT 08/M06 A3026 RMK A01 T00811060  RH  036%=      5-min Rain = 0
KAM3 140154Z 10008KT 08/M06 A3026 RMK A01 T00811060  RH  036%=      5-min Rain = 0
KAM3 140155Z 10010KT 08/M06 A3026 RMK A01 T00811060  RH  036%=      5-min Rain = 0
KAM3 140156Z 10011KT 08/M06 A3026 RMK A01 T00831061  RH  035%=      5-min Rain = 0
KAM3 140157Z 10009KT 09/M06 A3026 RMK A01 T00851063  RH  035%=      5-min Rain = 0
KAM3 140158Z 10010KT 09/M06 A3026 RMK A01 T00851064  RH  034%=      5-min Rain = 0
KAM3 140159Z 11011KT 09/M07 A3026 RMK A01 T00851066  RH  034%=      5-min Rain = 0
KAM3 140200Z 10011KT 09/M07 A3026 RMK A01 T00851067  RH  033%=      5-min Rain = 0
KAM3 140201Z 11010KT 09/M07 A3026 RMK A01 T00851068  RH  033%=      5-min Rain = 0
KAM3 140202Z 11011KT 09/M07 A3026 RMK A01 T00851069  RH  033%=      5-min Rain = 0
KAM3 140203Z 11012KT 08/M07 A3026 RMK A01 T00841070  RH  033%=      5-min Rain = 0
KAM3 140204Z 11012KT 08/M07 A3026 RMK A01 T00841071  RH  033%=      5-min Rain = 0
KAM3 140205Z 11012KT 08/M07 A3026 RMK A01 T00841071  RH  032%=      5-min Rain = 0
KAM3 140206Z 11012KT 08/M07 A3027 RMK A01 T00841071  RH  032%=      5-min Rain = 0
KAM3 140207Z 11010KT 08/M07 A3027 RMK A01 T00841072  RH  032%=      5-min Rain = 0
KAM3 140208Z 11011KT 08/M07 A3027 RMK A01 T00841072  RH  032%=      5-min Rain = 0
KAM3 140209Z 11013KT 08/M07 A3027 RMK A01 T00841072  RH  032%=      5-min Rain = 0
KAM3 140210Z 12013KT 09/M07 A3027 RMK A01 T00851072  RH  032%=      5-min Rain = 0
KAM3 140211Z 12012KT 09/M07 A3027 RMK A01 T00861072  RH  032%=      5-min Rain = 0
KAM3 140212Z 12011KT 09/M07 A3027 RMK A01 T00861072  RH  032%=      5-min Rain = 0
KAM3 140213Z 12011KT 09/M07 A3027 RMK A01 T00861073  RH  032%=      5-min Rain = 0
KAM3 140214Z 12012KT 09/M07 A3027 RMK A01 T00861072  RH  032%=      5-min Rain = 0
KAM3 140215Z 12010KT 09/M07 A3027 RMK A01 T00861072  RH  032%=      5-min Rain = 0
KAM3 140216Z 12010KT 09/M07 A3027 RMK A01 T00851072  RH  032%=      5-min Rain = 0
KAM3 140217Z 12010KT 09/M07 A3027 RMK A01 T00851072  RH  032%=      5-min Rain = 0
KAM3 140218Z 12010KT 08/M07 A3027 RMK A01 T00841072  RH  032%=      5-min Rain = 0
KAM3 140219Z 12011KT 08/M07 A3027 RMK A01 T00841071  RH  032%=      5-min Rain = 0
KAM3 140220Z 12010KT 08/M07 A3027 RMK A01 T00841071  RH  033%=      5-min Rain = 0
KAM3 140221Z 12010KT 08/M07 A3027 RMK A01 T00841071  RH  033%=      5-min Rain = 0
KAM3 140222Z 12011KT 08/M07 A3027 RMK A01 T00841071  RH  033%=      5-min Rain = 0
KAM3 140223Z 13010KT 08/M07 A3027 RMK A01 T00841071  RH  033%=      5-min Rain = 0
KAM3 140224Z 13011KT 08/M07 A3027 RMK A01 T00831071  RH  033%=      5-min Rain = 0
KAM3 140225Z 12011KT 08/M07 A3027 RMK A01 T00831071  RH  033%=      5-min Rain = 0
KAM3 140226Z 13011KT 08/M07 A3028 RMK A01 T00831072  RH  033%=      5-min Rain = 0
KAM3 140227Z 13012KT 08/M07 A3028 RMK A01 T00831073  RH  032%=      5-min Rain = 0
KAM3 140228Z 12012KT 08/M07 A3028 RMK A01 T00841073  RH  032%=      5-min Rain = 0
KAM3 140229Z 13010KT 08/M07 A3028 RMK A01 T00841073  RH  032%=      5-min Rain = 0
KAM3 140230Z 13012G18KT 08/M07 A3028 RMK A01 T00841073  RH  032%=      5-min Rain = 0
KAM3 140231Z 13011KT 08/M07 A3028 RMK A01 T00841074  RH  032%=      5-min Rain = 0
KAM3 140232Z 13011KT 08/M07 A3028 RMK A01 T00841074  RH  032%=      5-min Rain = 0
KAM3 140233Z 13013KT 08/M07 A3028 RMK A01 T00841074  RH  032%=      5-min Rain = 0
KAM3 140234Z 12013KT 08/M07 A3028 RMK A01 T00831074  RH  032%=      5-min Rain = 0
KAM3 140235Z 13013KT 08/M07 A3028 RMK A01 T00841074  RH  032%=      5-min Rain = 0
KAM3 140236Z 13014KT 08/M07 A3028 RMK A01 T00841074  RH  032%=      5-min Rain = 0
KAM3 140237Z 13014KT 08/M07 A3028 RMK A01 T00841074  RH  032%=      5-min Rain = 0
KAM3 140238Z 13013KT 08/M07 A3028 RMK A01 T00841074  RH  032%=      5-min Rain = 0
KAM3 140239Z 13012KT 08/M07 A3028 RMK A01 T00841074  RH  032%=      5-min Rain = 0
KAM3 140240Z 13010KT 08/M07 A3028 RMK A01 T00841074  RH  032%=      5-min Rain = 0
KAM3 140241Z 13011KT 08/M07 A3028 RMK A01 T00841073  RH  032%=      5-min Rain = 0
KAM3 140242Z 13012KT 08/M07 A3028 RMK A01 T00831074  RH  032%=      5-min Rain = 0
KAM3 140243Z 13011KT 08/M07 A3028 RMK A01 T00831073  RH  032%=      5-min Rain = 0
KAM3 140244Z 13011KT 08/M07 A3028 RMK A01 T00831073  RH  032%=      5-min Rain = 0
KAM3 140245Z 13012KT 08/M07 A3028 RMK A01 T00821073  RH  032%=      5-min Rain = 0
KAM3 140246Z 13010KT 08/M07 A3028 RMK A01 T00821073  RH  033%=      5-min Rain = 0
KAM3 140247Z 13012KT 08/M07 A3028 RMK A01 T00811073  RH  033%=      5-min Rain = 0
KAM3 140248Z 13011KT 08/M07 A3028 RMK A01 T00821072  RH  033%=      5-min Rain = 0
KAM3 140249Z 13012KT 08/M07 A3028 RMK A01 T00811072  RH  033%=      5-min Rain = 0
KAM3 140250Z 13011KT 08/M07 A3028 RMK A01 T00811072  RH  033%=      5-min Rain = 0
KAM3 140251Z 12010KT 08/M07 A3028 RMK A01 T00801072  RH  033%=      5-min Rain = 0
KAM3 140252Z 13010KT 08/M07 A3028 RMK A01 T00801071  RH  034%=      5-min Rain = 0
KAM3 140253Z 13013KT 08/M07 A3028 RMK A01 T00801070  RH  034%=      5-min Rain = 0
KAM3 140254Z 13012KT 08/M07 A3028 RMK A01 T00801069  RH  034%=      5-min Rain = 0
KAM3 140255Z 13011KT 08/M07 A3028 RMK A01 T00801069  RH  034%=      5-min Rain = 0
KAM3 140256Z 13011KT 08/M07 A3028 RMK A01 T00801069  RH  034%=      5-min Rain = 0
KAM3 140257Z 13011KT 08/M07 A3028 RMK A01 T00801069  RH  034%=      5-min Rain = 0
KAM3 140258Z 13012KT 08/M07 A3028 RMK A01 T00791070  RH  034%=      5-min Rain = 0
KAM3 140259Z 13011KT 08/M07 A3028 RMK A01 T00791070  RH  034%=      5-min Rain = 0
KAM3 140300Z 13011KT 08/M07 A3028 RMK A01 T00791070  RH  034%=      5-min Rain = 0
KAM3 140301Z 13012KT 08/M07 A3028 RMK A01 T00791070  RH  034%=      5-min Rain = 0
KAM3 140302Z 13011KT 08/M07 A3028 RMK A01 T00791070  RH  034%=      5-min Rain = 0
KAM3 140303Z 13010KT 08/M07 A3028 RMK A01 T00791070  RH  034%=      5-min Rain = 0
KAM3 140304Z 13012KT 08/M07 A3028 RMK A01 T00791070  RH  034%=      5-min Rain = 0
KAM3 140305Z 13012KT 08/M07 A3028 RMK A01 T00791069  RH  034%=      5-min Rain = 0
KAM3 140306Z 13010KT 08/M07 A3028 RMK A01 T00791069  RH  034%=      5-min Rain = 0
KAM3 140307Z 13010KT 08/M07 A3028 RMK A01 T00781069  RH  034%=      5-min Rain = 0
KAM3 140308Z 13012KT 08/M07 A3028 RMK A01 T00781070  RH  034%=      5-min Rain = 0
KAM3 140309Z 14012KT 08/M07 A3028 RMK A01 T00781069  RH  035%=      5-min Rain = 0
KAM3 140310Z 13011KT 08/M07 A3028 RMK A01 T00781069  RH  035%=      5-min Rain = 0
KAM3 140311Z 13011KT 08/M07 A3028 RMK A01 T00781069  RH  035%=      5-min Rain = 0
KAM3 140312Z 12010KT 08/M07 A3028 RMK A01 T00771069  RH  035%=      5-min Rain = 0
KAM3 140313Z 13013KT 08/M07 A3028 RMK A01 T00761069  RH  035%=      5-min Rain = 0
KAM3 140314Z 13013KT 08/M07 A3028 RMK A01 T00771068  RH  035%=      5-min Rain = 0
KAM3 140315Z 13011KT 08/M07 A3028 RMK A01 T00771068  RH  035%=      5-min Rain = 0
KAM3 140316Z 13012KT 08/M07 A3028 RMK A01 T00771068  RH  035%=      5-min Rain = 0
KAM3 140317Z 12011KT 08/M07 A3028 RMK A01 T00771068  RH  035%=      5-min Rain = 0
KAM3 140318Z 13014KT 08/M07 A3028 RMK A01 T00761068  RH  035%=      5-min Rain = 0
KAM3 140319Z 13012KT 08/M07 A3028 RMK A01 T00761068  RH  035%=      5-min Rain = 0
KAM3 140320Z 13012KT 08/M07 A3028 RMK A01 T00761068  RH  035%=      5-min Rain = 0
KAM3 140321Z 13010KT 08/M07 A3028 RMK A01 T00761068  RH  035%=      5-min Rain = 0
KAM3 140322Z 13010KT 08/M07 A3028 RMK A01 T00761068  RH  035%=      5-min Rain = 0
KAM3 140323Z 13011KT 08/M07 A3028 RMK A01 T00751068  RH  035%=      5-min Rain = 0
KAM3 140324Z 13010KT 08/M07 A3028 RMK A01 T00751069  RH  035%=      5-min Rain = 0
KAM3 140325Z 13011KT 07/M07 A3028 RMK A01 T00741069  RH  036%=      5-min Rain = 0
KAM3 140326Z 14011KT 07/M07 A3028 RMK A01 T00731069  RH  036%=      5-min Rain = 0
KAM3 140327Z 13010G15KT 07/M07 A3028 RMK A01 T00731069  RH  036%=      5-min Rain = 0
KAM3 140328Z 13012KT 07/M07 A3028 RMK A01 T00731069  RH  036%=      5-min Rain = 0
KAM3 140329Z 13012KT 07/M07 A3028 RMK A01 T00721069  RH  036%=      5-min Rain = 0
KAM3 140330Z 14011KT 07/M07 A3028 RMK A01 T00721069  RH  036%=      5-min Rain = 0
KAM3 140331Z 14010KT 07/M07 A3028 RMK A01 T00721068  RH  036%=      5-min Rain = 0
KAM3 140332Z 14009KT 07/M07 A3028 RMK A01 T00711069  RH  036%=      5-min Rain = 0
KAM3 140333Z 14009KT 07/M07 A3028 RMK A01 T00701069  RH  037%=      5-min Rain = 0
KAM3 140334Z 14011KT 07/M07 A3028 RMK A01 T00691069  RH  037%=      5-min Rain = 0
KAM3 140335Z 14012KT 07/M07 A3028 RMK A01 T00691068  RH  037%=      5-min Rain = 0
KAM3 140336Z 15010KT 07/M07 A3028 RMK A01 T00691069  RH  037%=      5-min Rain = 0
KAM3 140337Z 14011KT 07/M07 A3028 RMK A01 T00681069  RH  037%=      5-min Rain = 0
KAM3 140338Z 15011KT 07/M07 A3028 RMK A01 T00681069  RH  037%=      5-min Rain = 0
KAM3 140339Z 14011KT 07/M07 A3028 RMK A01 T00681069  RH  037%=      5-min Rain = 0
KAM3 140340Z 14011KT 07/M07 A3028 RMK A01 T00671069  RH  037%=      5-min Rain = 0
KAM3 140341Z 14013KT 07/M07 A3028 RMK A01 T00671069  RH  037%=      5-min Rain = 0
KAM3 140342Z 14013KT 07/M07 A3028 RMK A01 T00671070  RH  037%=      5-min Rain = 0
KAM3 140343Z 14013KT 07/M07 A3028 RMK A01 T00671070  RH  037%=      5-min Rain = 0
KAM3 140344Z 14012KT 07/M07 A3028 RMK A01 T00671070  RH  037%=      5-min Rain = 0
KAM3 140345Z 14013KT 07/M07 A3028 RMK A01 T00671070  RH  037%=      5-min Rain = 0
KAM3 140346Z 14012G17KT 07/M07 A3027 RMK A01 T00671070  RH  037%=      5-min Rain = 0
KAM3 140347Z 14011KT 07/M07 A3027 RMK A01 T00671070  RH  037%=      5-min Rain = 0
KAM3 140348Z 14011KT 07/M07 A3027 RMK A01 T00661070  RH  037%=      5-min Rain = 0
KAM3 140349Z 14012KT 07/M07 A3027 RMK A01 T00661070  RH  037%=      5-min Rain = 0
KAM3 140350Z 14013KT 07/M07 A3027 RMK A01 T00651070  RH  037%=      5-min Rain = 0
KAM3 140351Z 14012KT 07/M07 A3027 RMK A01 T00661070  RH  037%=      5-min Rain = 0
KAM3 140352Z 14014KT 07/M07 A3027 RMK A01 T00661070  RH  037%=      5-min Rain = 0
KAM3 140353Z 15015KT 07/M07 A3027 RMK A01 T00661070  RH  037%=      5-min Rain = 0
KAM3 140354Z 14013KT 07/M07 A3027 RMK A01 T00671070  RH  037%=      5-min Rain = 0
KAM3 140355Z 14011KT 07/M07 A3027 RMK A01 T00671070  RH  037%=      5-min Rain = 0
KAM3 140356Z 14013KT 07/M07 A3027 RMK A01 T00671070  RH  037%=      5-min Rain = 0
KAM3 140357Z 14013KT 07/M07 A3027 RMK A01 T00661071  RH  037%=      5-min Rain = 0
KAM3 140358Z 14014KT 07/M07 A3027 RMK A01 T00661071  RH  037%=      5-min Rain = 0
KAM3 140359Z 14012KT 07/M07 A3027 RMK A01 T00661071  RH  037%=      5-min Rain = 0
KAM3 140400Z 14014KT 07/M07 A3027 RMK A01 T00661071  RH  037%=      5-min Rain = 0
KAM3 140401Z 14012KT 07/M07 A3027 RMK A01 T00661070  RH  037%=      5-min Rain = 0
KAM3 140402Z 14012KT 07/M07 A3027 RMK A01 T00671070  RH  037%=      5-min Rain = 0
KAM3 140403Z 14010KT 07/M07 A3027 RMK A01 T00671070  RH  037%=      5-min Rain = 0
KAM3 140404Z 14011G17KT 07/M07 A3027 RMK A01 T00661070  RH  037%=      5-min Rain = 0
KAM3 140405Z 14012KT 07/M07 A3027 RMK A01 T00661071  RH  037%=      5-min Rain = 0
KAM3 140406Z 15012KT 07/M07 A3027 RMK A01 T00651070  RH  037%=      5-min Rain = 0
KAM3 140407Z 15012KT 07/M07 A3027 RMK A01 T00651070  RH  037%=      5-min Rain = 0
KAM3 140408Z 15012KT 07/M07 A3027 RMK A01 T00651071  RH  037%=      5-min Rain = 0
KAM3 140409Z 14011KT 07/M07 A3028 RMK A01 T00651070  RH  037%=      5-min Rain = 0
KAM3 140410Z 14011KT 07/M07 A3028 RMK A01 T00651070  RH  037%=      5-min Rain = 0
KAM3 140411Z 14010KT 06/M07 A3028 RMK A01 T00641070  RH  038%=      5-min Rain = 0
KAM3 140412Z 14012KT 06/M07 A3028 RMK A01 T00641070  RH  038%=      5-min Rain = 0
KAM3 140413Z 15013KT 06/M07 A3027 RMK A01 T00641070  RH  038%=      5-min Rain = 0
KAM3 140414Z 14011KT 06/M07 A3027 RMK A01 T00641070  RH  038%=      5-min Rain = 0
KAM3 140415Z 14011KT 06/M07 A3028 RMK A01 T00641070  RH  037%=      5-min Rain = 0
KAM3 140416Z 15011KT 06/M07 A3028 RMK A01 T00641070  RH  038%=      5-min Rain = 0
KAM3 140417Z 14013KT 06/M07 A3028 RMK A01 T00641070  RH  038%=      5-min Rain = 0
KAM3 140418Z 15011KT 06/M07 A3028 RMK A01 T00641070  RH  038%=      5-min Rain = 0
KAM3 140419Z 15012KT 06/M07 A3028 RMK A01 T00641070  RH  038%=      5-min Rain = 0
KAM3 140420Z 14014KT 06/M07 A3028 RMK A01 T00641070  RH  038%=      5-min Rain = 0
KAM3 140421Z 15012KT 06/M07 A3028 RMK A01 T00641070  RH  038%=      5-min Rain = 0
KAM3 140422Z 14012KT 06/M07 A3028 RMK A01 T00641070  RH  038%=      5-min Rain = 0
KAM3 140423Z 14011KT 06/M07 A3028 RMK A01 T00641070  RH  038%=      5-min Rain = 0
KAM3 140424Z 14012KT 06/M07 A3028 RMK A01 T00641070  RH  038%=      5-min Rain = 0
KAM3 140425Z 15010KT 06/M07 A3028 RMK A01 T00641070  RH  038%=      5-min Rain = 0
KAM3 140426Z 15012KT 06/M07 A3028 RMK A01 T00631070  RH  038%=      5-min Rain = 0
KAM3 140427Z 15011KT 06/M07 A3028 RMK A01 T00631070  RH  038%=      5-min Rain = 0
KAM3 140428Z 15011KT 06/M07 A3028 RMK A01 T00631070  RH  038%=      5-min Rain = 0
KAM3 140429Z 14011KT 06/M07 A3028 RMK A01 T00631070  RH  038%=      5-min Rain = 0
KAM3 140430Z 15012KT 06/M07 A3028 RMK A01 T00621070  RH  038%=      5-min Rain = 0
KAM3 140431Z 15012KT 06/M07 A3028 RMK A01 T00621070  RH  038%=      5-min Rain = 0
KAM3 140432Z 15010KT 06/M07 A3028 RMK A01 T00621070  RH  038%=      5-min Rain = 0
KAM3 140433Z 15010KT 06/M07 A3028 RMK A01 T00621071  RH  038%=      5-min Rain = 0
KAM3 140434Z 14010KT 06/M07 A3028 RMK A01 T00611071  RH  038%=      5-min Rain = 0
KAM3 140435Z 15011KT 06/M07 A3028 RMK A01 T00611071  RH  038%=      5-min Rain = 0
KAM3 140436Z 14012KT 06/M07 A3028 RMK A01 T00611071  RH  038%=      5-min Rain = 0
KAM3 140437Z 15012KT 06/M07 A3028 RMK A01 T00611072  RH  038%=      5-min Rain = 0
KAM3 140438Z 14013KT 06/M07 A3028 RMK A01 T00621072  RH  038%=      5-min Rain = 0
KAM3 140439Z 14012KT 06/M07 A3028 RMK A01 T00621072  RH  037%=      5-min Rain = 0
KAM3 140440Z 14012KT 06/M07 A3028 RMK A01 T00631073  RH  037%=      5-min Rain = 0
KAM3 140441Z 14012KT 06/M07 A3028 RMK A01 T00631072  RH  037%=      5-min Rain = 0
KAM3 140442Z 14012KT 06/M07 A3028 RMK A01 T00631073  RH  037%=      5-min Rain = 0
KAM3 140443Z 14012KT 06/M07 A3028 RMK A01 T00631073  RH  037%=      5-min Rain = 0
KAM3 140444Z 13011KT 06/M07 A3028 RMK A01 T00631073  RH  037%=      5-min Rain = 0
KAM3 140445Z 14011KT 06/M07 A3028 RMK A01 T00631074  RH  037%=      5-min Rain = 0
KAM3 140446Z 14010KT 06/M07 A3028 RMK A01 T00621074  RH  037%=      5-min Rain = 0
KAM3 140447Z 14012KT 06/M07 A3028 RMK A01 T00621074  RH  037%=      5-min Rain = 0
KAM3 140448Z 13010KT 06/M07 A3028 RMK A01 T00611074  RH  037%=      5-min Rain = 0
KAM3 140449Z 13011KT 06/M07 A3028 RMK A01 T00611074  RH  037%=      5-min Rain = 0
KAM3 140450Z 14011KT 06/M07 A3028 RMK A01 T00611074  RH  037%=      5-min Rain = 0
KAM3 140451Z 13012KT 06/M07 A3028 RMK A01 T00611074  RH  037%=      5-min Rain = 0
KAM3 140452Z 14009KT 06/M07 A3028 RMK A01 T00621074  RH  037%=      5-min Rain = 0
KAM3 140453Z 14010KT 06/M07 A3028 RMK A01 T00611074  RH  037%=      5-min Rain = 0
KAM3 140454Z 13010KT 06/M07 A3028 RMK A01 T00611074  RH  037%=      5-min Rain = 0
KAM3 140455Z 13010KT 06/M07 A3028 RMK A01 T00601074  RH  037%=      5-min Rain = 0
KAM3 140456Z 14009KT 06/M07 A3028 RMK A01 T00601074  RH  038%=      5-min Rain = 0
KAM3 140457Z 14010KT 06/M07 A3028 RMK A01 T00591074  RH  038%=      5-min Rain = 0
KAM3 140458Z 14009KT 06/M07 A3028 RMK A01 T00591074  RH  038%=      5-min Rain = 0
KAM3 140459Z 14009KT 06/M08 A3028 RMK A01 T00581075  RH  038%=      5-min Rain = 0
KAM3 140500Z 14008KT 06/M08 A3028 RMK A01 T00571075  RH  038%=      5-min Rain = 0

Page generated in 0.0592 seconds.